<?xml version="1.0" encoding="UTF-8" standalone="no" ?>
<gpx xmlns="http://www.topografix.com/GPX/1/1" xmlns:xsi="http://www.w3.org/2001/XMLSchema-instance" xsi:schemaLocation="http://www.topografix.com/GPX/1/1 http://www.topografix.com/GPX/1/1/gpx.xsd" version="1.1" creator="VisuGPX - https://www.visugpx.com">
  <metadata>
    <name>Le Chirat Blanc (Suc du Barry)</name>
    <desc><![CDATA[Le Chirat Blanc en boucle au départ de Saint Symphorien de Mahun
]]></desc>
  </metadata>
  <trk>
    <name><![CDATA[2017-01-29 16:15:13]]></name>
    <trkseg>
      <trkpt lat="45.1573" lon="4.57873">
        <ele>624.51</ele>
        <time>2017-01-29T08:52:54Z</time>
      </trkpt>
      <trkpt lat="45.1573" lon="4.57873">
        <ele>624.51</ele>
        <time>2017-01-29T08:52:55Z</time>
      </trkpt>
      <trkpt lat="45.15729" lon="4.57867">
        <ele>624.99</ele>
        <time>2017-01-29T08:55:32Z</time>
      </trkpt>
      <trkpt lat="45.15728" lon="4.57865">
        <ele>624.99</ele>
        <time>2017-01-29T08:56:47Z</time>
      </trkpt>
      <trkpt lat="45.15725" lon="4.57854">
        <ele>624.99</ele>
        <time>2017-01-29T08:57:01Z</time>
      </trkpt>
      <trkpt lat="45.15725" lon="4.57847">
        <ele>624.99</ele>
        <time>2017-01-29T08:57:07Z</time>
      </trkpt>
      <trkpt lat="45.15732" lon="4.57821">
        <ele>624.99</ele>
        <time>2017-01-29T08:57:26Z</time>
      </trkpt>
      <trkpt lat="45.15738" lon="4.57798">
        <ele>624.99</ele>
        <time>2017-01-29T08:57:42Z</time>
      </trkpt>
      <trkpt lat="45.1574" lon="4.57787">
        <ele>624.99</ele>
        <time>2017-01-29T08:57:49Z</time>
      </trkpt>
      <trkpt lat="45.15744" lon="4.57765">
        <ele>624.99</ele>
        <time>2017-01-29T08:58:03Z</time>
      </trkpt>
      <trkpt lat="45.15745" lon="4.5776">
        <ele>624.99</ele>
        <time>2017-01-29T08:58:06Z</time>
      </trkpt>
      <trkpt lat="45.15749" lon="4.57731">
        <ele>624.51</ele>
        <time>2017-01-29T08:58:23Z</time>
      </trkpt>
      <trkpt lat="45.15753" lon="4.57704">
        <ele>624.51</ele>
        <time>2017-01-29T08:58:40Z</time>
      </trkpt>
      <trkpt lat="45.15754" lon="4.57691">
        <ele>624.99</ele>
        <time>2017-01-29T08:58:48Z</time>
      </trkpt>
      <trkpt lat="45.15757" lon="4.5766">
        <ele>625.96</ele>
        <time>2017-01-29T08:59:06Z</time>
      </trkpt>
      <trkpt lat="45.15757" lon="4.57643">
        <ele>625.96</ele>
        <time>2017-01-29T08:59:15Z</time>
      </trkpt>
      <trkpt lat="45.15757" lon="4.57616">
        <ele>626.44</ele>
        <time>2017-01-29T08:59:31Z</time>
      </trkpt>
      <trkpt lat="45.1576" lon="4.5759">
        <ele>627.4</ele>
        <time>2017-01-29T08:59:47Z</time>
      </trkpt>
      <trkpt lat="45.15763" lon="4.57564">
        <ele>627.4</ele>
        <time>2017-01-29T09:00:02Z</time>
      </trkpt>
      <trkpt lat="45.15768" lon="4.57534">
        <ele>627.88</ele>
        <time>2017-01-29T09:00:20Z</time>
      </trkpt>
      <trkpt lat="45.15771" lon="4.57508">
        <ele>628.36</ele>
        <time>2017-01-29T09:00:35Z</time>
      </trkpt>
      <trkpt lat="45.15773" lon="4.57486">
        <ele>628.84</ele>
        <time>2017-01-29T09:00:48Z</time>
      </trkpt>
      <trkpt lat="45.15778" lon="4.5746">
        <ele>629.32</ele>
        <time>2017-01-29T09:01:04Z</time>
      </trkpt>
      <trkpt lat="45.15783" lon="4.57448">
        <ele>629.8</ele>
        <time>2017-01-29T09:01:12Z</time>
      </trkpt>
      <trkpt lat="45.1579" lon="4.57419">
        <ele>629.8</ele>
        <time>2017-01-29T09:01:29Z</time>
      </trkpt>
      <trkpt lat="45.15797" lon="4.57396">
        <ele>630.28</ele>
        <time>2017-01-29T09:01:44Z</time>
      </trkpt>
      <trkpt lat="45.15806" lon="4.57375">
        <ele>630.28</ele>
        <time>2017-01-29T09:01:58Z</time>
      </trkpt>
      <trkpt lat="45.15809" lon="4.57361">
        <ele>630.28</ele>
        <time>2017-01-29T09:02:12Z</time>
      </trkpt>
      <trkpt lat="45.15816" lon="4.57346">
        <ele>629.8</ele>
        <time>2017-01-29T09:02:28Z</time>
      </trkpt>
      <trkpt lat="45.15829" lon="4.5733">
        <ele>629.8</ele>
        <time>2017-01-29T09:02:42Z</time>
      </trkpt>
      <trkpt lat="45.15836" lon="4.57316">
        <ele>629.32</ele>
        <time>2017-01-29T09:02:56Z</time>
      </trkpt>
      <trkpt lat="45.15836" lon="4.57311">
        <ele>629.32</ele>
        <time>2017-01-29T09:02:59Z</time>
      </trkpt>
      <trkpt lat="45.15844" lon="4.57275">
        <ele>629.32</ele>
        <time>2017-01-29T09:03:19Z</time>
      </trkpt>
      <trkpt lat="45.15848" lon="4.57243">
        <ele>629.32</ele>
        <time>2017-01-29T09:03:36Z</time>
      </trkpt>
      <trkpt lat="45.1585" lon="4.57225">
        <ele>627.88</ele>
        <time>2017-01-29T09:03:45Z</time>
      </trkpt>
      <trkpt lat="45.15858" lon="4.57192">
        <ele>627.4</ele>
        <time>2017-01-29T09:04:04Z</time>
      </trkpt>
      <trkpt lat="45.15869" lon="4.57172">
        <ele>626.92</ele>
        <time>2017-01-29T09:04:18Z</time>
      </trkpt>
      <trkpt lat="45.15881" lon="4.57147">
        <ele>626.44</ele>
        <time>2017-01-29T09:04:34Z</time>
      </trkpt>
      <trkpt lat="45.1589" lon="4.57116">
        <ele>626.44</ele>
        <time>2017-01-29T09:04:51Z</time>
      </trkpt>
      <trkpt lat="45.15897" lon="4.57095">
        <ele>626.44</ele>
        <time>2017-01-29T09:05:06Z</time>
      </trkpt>
      <trkpt lat="45.15907" lon="4.57069">
        <ele>627.4</ele>
        <time>2017-01-29T09:05:23Z</time>
      </trkpt>
      <trkpt lat="45.15922" lon="4.5704">
        <ele>627.4</ele>
        <time>2017-01-29T09:05:43Z</time>
      </trkpt>
      <trkpt lat="45.15927" lon="4.57027">
        <ele>626.44</ele>
        <time>2017-01-29T09:05:51Z</time>
      </trkpt>
      <trkpt lat="45.1594" lon="4.57001">
        <ele>625.96</ele>
        <time>2017-01-29T09:06:09Z</time>
      </trkpt>
      <trkpt lat="45.1595" lon="4.56982">
        <ele>625.47</ele>
        <time>2017-01-29T09:06:23Z</time>
      </trkpt>
      <trkpt lat="45.15959" lon="4.56958">
        <ele>624.99</ele>
        <time>2017-01-29T09:06:38Z</time>
      </trkpt>
      <trkpt lat="45.15963" lon="4.56942">
        <ele>624.99</ele>
        <time>2017-01-29T09:06:47Z</time>
      </trkpt>
      <trkpt lat="45.15969" lon="4.56926">
        <ele>624.99</ele>
        <time>2017-01-29T09:06:57Z</time>
      </trkpt>
      <trkpt lat="45.1597" lon="4.56919">
        <ele>624.99</ele>
        <time>2017-01-29T09:07:01Z</time>
      </trkpt>
      <trkpt lat="45.15976" lon="4.56888">
        <ele>624.99</ele>
        <time>2017-01-29T09:07:19Z</time>
      </trkpt>
      <trkpt lat="45.15982" lon="4.56867">
        <ele>624.51</ele>
        <time>2017-01-29T09:07:32Z</time>
      </trkpt>
      <trkpt lat="45.15986" lon="4.56841">
        <ele>625.96</ele>
        <time>2017-01-29T09:07:48Z</time>
      </trkpt>
      <trkpt lat="45.15993" lon="4.56814">
        <ele>625.96</ele>
        <time>2017-01-29T09:08:04Z</time>
      </trkpt>
      <trkpt lat="45.15998" lon="4.56792">
        <ele>626.44</ele>
        <time>2017-01-29T09:08:17Z</time>
      </trkpt>
      <trkpt lat="45.16002" lon="4.56762">
        <ele>626.44</ele>
        <time>2017-01-29T09:08:33Z</time>
      </trkpt>
      <trkpt lat="45.16003" lon="4.56759">
        <ele>626.92</ele>
        <time>2017-01-29T09:08:35Z</time>
      </trkpt>
      <trkpt lat="45.16007" lon="4.56745">
        <ele>626.92</ele>
        <time>2017-01-29T09:08:44Z</time>
      </trkpt>
      <trkpt lat="45.16009" lon="4.5672">
        <ele>626.92</ele>
        <time>2017-01-29T09:08:58Z</time>
      </trkpt>
      <trkpt lat="45.16011" lon="4.56692">
        <ele>627.4</ele>
        <time>2017-01-29T09:09:12Z</time>
      </trkpt>
      <trkpt lat="45.16014" lon="4.56661">
        <ele>627.4</ele>
        <time>2017-01-29T09:09:28Z</time>
      </trkpt>
      <trkpt lat="45.16017" lon="4.56627">
        <ele>628.36</ele>
        <time>2017-01-29T09:09:45Z</time>
      </trkpt>
      <trkpt lat="45.16025" lon="4.56593">
        <ele>627.88</ele>
        <time>2017-01-29T09:10:05Z</time>
      </trkpt>
      <trkpt lat="45.16031" lon="4.56559">
        <ele>628.84</ele>
        <time>2017-01-29T09:10:24Z</time>
      </trkpt>
      <trkpt lat="45.16035" lon="4.5653">
        <ele>628.84</ele>
        <time>2017-01-29T09:10:41Z</time>
      </trkpt>
      <trkpt lat="45.16038" lon="4.56501">
        <ele>629.32</ele>
        <time>2017-01-29T09:10:57Z</time>
      </trkpt>
      <trkpt lat="45.16039" lon="4.56478">
        <ele>629.8</ele>
        <time>2017-01-29T09:11:11Z</time>
      </trkpt>
      <trkpt lat="45.1604" lon="4.56465">
        <ele>629.8</ele>
        <time>2017-01-29T09:11:26Z</time>
      </trkpt>
      <trkpt lat="45.16038" lon="4.56465">
        <ele>630.28</ele>
        <time>2017-01-29T09:11:42Z</time>
      </trkpt>
      <trkpt lat="45.16039" lon="4.56465">
        <ele>630.28</ele>
        <time>2017-01-29T09:11:58Z</time>
      </trkpt>
      <trkpt lat="45.1604" lon="4.56461">
        <ele>631.24</ele>
        <time>2017-01-29T09:12:15Z</time>
      </trkpt>
      <trkpt lat="45.16041" lon="4.56448">
        <ele>634.13</ele>
        <time>2017-01-29T09:12:29Z</time>
      </trkpt>
      <trkpt lat="45.16047" lon="4.5643">
        <ele>636.53</ele>
        <time>2017-01-29T09:12:46Z</time>
      </trkpt>
      <trkpt lat="45.16051" lon="4.56415">
        <ele>638.45</ele>
        <time>2017-01-29T09:13:02Z</time>
      </trkpt>
      <trkpt lat="45.16055" lon="4.564">
        <ele>640.86</ele>
        <time>2017-01-29T09:13:19Z</time>
      </trkpt>
      <trkpt lat="45.16058" lon="4.56389">
        <ele>643.26</ele>
        <time>2017-01-29T09:13:34Z</time>
      </trkpt>
      <trkpt lat="45.1606" lon="4.56377">
        <ele>645.18</ele>
        <time>2017-01-29T09:13:49Z</time>
      </trkpt>
      <trkpt lat="45.16062" lon="4.56365">
        <ele>647.59</ele>
        <time>2017-01-29T09:14:07Z</time>
      </trkpt>
      <trkpt lat="45.16064" lon="4.56352">
        <ele>649.03</ele>
        <time>2017-01-29T09:14:20Z</time>
      </trkpt>
      <trkpt lat="45.16064" lon="4.56346">
        <ele>651.43</ele>
        <time>2017-01-29T09:14:28Z</time>
      </trkpt>
      <trkpt lat="45.16067" lon="4.56329">
        <ele>652.39</ele>
        <time>2017-01-29T09:14:43Z</time>
      </trkpt>
      <trkpt lat="45.16067" lon="4.56308">
        <ele>655.28</ele>
        <time>2017-01-29T09:15:02Z</time>
      </trkpt>
      <trkpt lat="45.16068" lon="4.56296">
        <ele>658.16</ele>
        <time>2017-01-29T09:15:18Z</time>
      </trkpt>
      <trkpt lat="45.1607" lon="4.5629">
        <ele>660.56</ele>
        <time>2017-01-29T09:15:32Z</time>
      </trkpt>
      <trkpt lat="45.16075" lon="4.56295">
        <ele>662.97</ele>
        <time>2017-01-29T09:15:52Z</time>
      </trkpt>
      <trkpt lat="45.16075" lon="4.56298">
        <ele>662.97</ele>
        <time>2017-01-29T09:16:12Z</time>
      </trkpt>
      <trkpt lat="45.16076" lon="4.56295">
        <ele>662.97</ele>
        <time>2017-01-29T09:16:32Z</time>
      </trkpt>
      <trkpt lat="45.1608" lon="4.563">
        <ele>662.97</ele>
        <time>2017-01-29T09:16:49Z</time>
      </trkpt>
      <trkpt lat="45.16083" lon="4.56312">
        <ele>662.97</ele>
        <time>2017-01-29T09:17:04Z</time>
      </trkpt>
      <trkpt lat="45.16086" lon="4.56317">
        <ele>662.01</ele>
        <time>2017-01-29T09:17:18Z</time>
      </trkpt>
      <trkpt lat="45.1609" lon="4.56321">
        <ele>662.01</ele>
        <time>2017-01-29T09:17:29Z</time>
      </trkpt>
      <trkpt lat="45.1609" lon="4.56323">
        <ele>662.97</ele>
        <time>2017-01-29T09:17:32Z</time>
      </trkpt>
      <trkpt lat="45.16095" lon="4.5633">
        <ele>665.37</ele>
        <time>2017-01-29T09:17:49Z</time>
      </trkpt>
      <trkpt lat="45.16102" lon="4.56338">
        <ele>667.77</ele>
        <time>2017-01-29T09:18:03Z</time>
      </trkpt>
      <trkpt lat="45.1611" lon="4.56347">
        <ele>670.18</ele>
        <time>2017-01-29T09:18:19Z</time>
      </trkpt>
      <trkpt lat="45.16115" lon="4.56354">
        <ele>670.66</ele>
        <time>2017-01-29T09:18:27Z</time>
      </trkpt>
      <trkpt lat="45.16124" lon="4.56368">
        <ele>672.1</ele>
        <time>2017-01-29T09:18:42Z</time>
      </trkpt>
      <trkpt lat="45.16134" lon="4.56374">
        <ele>674.5</ele>
        <time>2017-01-29T09:18:57Z</time>
      </trkpt>
      <trkpt lat="45.16143" lon="4.56368">
        <ele>676.91</ele>
        <time>2017-01-29T09:19:12Z</time>
      </trkpt>
      <trkpt lat="45.16148" lon="4.56353">
        <ele>679.79</ele>
        <time>2017-01-29T09:19:29Z</time>
      </trkpt>
      <trkpt lat="45.16149" lon="4.5634">
        <ele>681.71</ele>
        <time>2017-01-29T09:19:43Z</time>
      </trkpt>
      <trkpt lat="45.16152" lon="4.56326">
        <ele>684.6</ele>
        <time>2017-01-29T09:19:57Z</time>
      </trkpt>
      <trkpt lat="45.16161" lon="4.56317">
        <ele>687</ele>
        <time>2017-01-29T09:20:14Z</time>
      </trkpt>
      <trkpt lat="45.16171" lon="4.56303">
        <ele>689.4</ele>
        <time>2017-01-29T09:20:31Z</time>
      </trkpt>
      <trkpt lat="45.16177" lon="4.5629">
        <ele>692.77</ele>
        <time>2017-01-29T09:20:47Z</time>
      </trkpt>
      <trkpt lat="45.16183" lon="4.56277">
        <ele>695.65</ele>
        <time>2017-01-29T09:21:06Z</time>
      </trkpt>
      <trkpt lat="45.16191" lon="4.56263">
        <ele>697.57</ele>
        <time>2017-01-29T09:21:22Z</time>
      </trkpt>
      <trkpt lat="45.16197" lon="4.56253">
        <ele>699.5</ele>
        <time>2017-01-29T09:21:37Z</time>
      </trkpt>
      <trkpt lat="45.16206" lon="4.56241">
        <ele>701.9</ele>
        <time>2017-01-29T09:21:52Z</time>
      </trkpt>
      <trkpt lat="45.16219" lon="4.56229">
        <ele>703.82</ele>
        <time>2017-01-29T09:22:08Z</time>
      </trkpt>
      <trkpt lat="45.16227" lon="4.56221">
        <ele>706.23</ele>
        <time>2017-01-29T09:22:23Z</time>
      </trkpt>
      <trkpt lat="45.16237" lon="4.56213">
        <ele>708.63</ele>
        <time>2017-01-29T09:22:38Z</time>
      </trkpt>
      <trkpt lat="45.16248" lon="4.56202">
        <ele>710.55</ele>
        <time>2017-01-29T09:22:53Z</time>
      </trkpt>
      <trkpt lat="45.16255" lon="4.56195">
        <ele>712.95</ele>
        <time>2017-01-29T09:23:07Z</time>
      </trkpt>
      <trkpt lat="45.16264" lon="4.56186">
        <ele>714.88</ele>
        <time>2017-01-29T09:23:23Z</time>
      </trkpt>
      <trkpt lat="45.16273" lon="4.56178">
        <ele>718.24</ele>
        <time>2017-01-29T09:23:40Z</time>
      </trkpt>
      <trkpt lat="45.16281" lon="4.56167">
        <ele>720.65</ele>
        <time>2017-01-29T09:23:56Z</time>
      </trkpt>
      <trkpt lat="45.1629" lon="4.5616">
        <ele>723.53</ele>
        <time>2017-01-29T09:24:13Z</time>
      </trkpt>
      <trkpt lat="45.16291" lon="4.5616">
        <ele>724.01</ele>
        <time>2017-01-29T09:24:15Z</time>
      </trkpt>
      <trkpt lat="45.163" lon="4.56154">
        <ele>726.89</ele>
        <time>2017-01-29T09:24:28Z</time>
      </trkpt>
      <trkpt lat="45.16307" lon="4.56143">
        <ele>729.3</ele>
        <time>2017-01-29T09:24:43Z</time>
      </trkpt>
      <trkpt lat="45.16316" lon="4.56131">
        <ele>732.66</ele>
        <time>2017-01-29T09:25:00Z</time>
      </trkpt>
      <trkpt lat="45.16323" lon="4.5612">
        <ele>735.07</ele>
        <time>2017-01-29T09:25:15Z</time>
      </trkpt>
      <trkpt lat="45.16324" lon="4.56117">
        <ele>736.51</ele>
        <time>2017-01-29T09:25:28Z</time>
      </trkpt>
      <trkpt lat="45.16325" lon="4.56117">
        <ele>736.51</ele>
        <time>2017-01-29T09:25:30Z</time>
      </trkpt>
      <trkpt lat="45.16325" lon="4.56118">
        <ele>734.58</ele>
        <time>2017-01-29T09:25:45Z</time>
      </trkpt>
      <trkpt lat="45.16326" lon="4.56117">
        <ele>736.51</ele>
        <time>2017-01-29T09:26:05Z</time>
      </trkpt>
      <trkpt lat="45.16326" lon="4.56116">
        <ele>736.51</ele>
        <time>2017-01-29T09:26:26Z</time>
      </trkpt>
      <trkpt lat="45.16325" lon="4.56114">
        <ele>736.03</ele>
        <time>2017-01-29T09:26:49Z</time>
      </trkpt>
      <trkpt lat="45.16324" lon="4.56115">
        <ele>736.03</ele>
        <time>2017-01-29T09:27:14Z</time>
      </trkpt>
      <trkpt lat="45.16323" lon="4.5611">
        <ele>736.03</ele>
        <time>2017-01-29T09:27:27Z</time>
      </trkpt>
      <trkpt lat="45.16324" lon="4.5611">
        <ele>736.03</ele>
        <time>2017-01-29T09:27:42Z</time>
      </trkpt>
      <trkpt lat="45.16323" lon="4.56111">
        <ele>736.03</ele>
        <time>2017-01-29T09:28:12Z</time>
      </trkpt>
      <trkpt lat="45.16323" lon="4.56111">
        <ele>736.03</ele>
        <time>2017-01-29T09:28:32Z</time>
      </trkpt>
      <trkpt lat="45.16324" lon="4.56109">
        <ele>736.03</ele>
        <time>2017-01-29T09:28:56Z</time>
      </trkpt>
      <trkpt lat="45.16325" lon="4.56107">
        <ele>736.03</ele>
        <time>2017-01-29T09:29:15Z</time>
      </trkpt>
      <trkpt lat="45.1633" lon="4.56104">
        <ele>736.51</ele>
        <time>2017-01-29T09:29:33Z</time>
      </trkpt>
      <trkpt lat="45.1633" lon="4.56104">
        <ele>736.99</ele>
        <time>2017-01-29T09:29:54Z</time>
      </trkpt>
      <trkpt lat="45.16324" lon="4.56107">
        <ele>735.55</ele>
        <time>2017-01-29T09:30:14Z</time>
      </trkpt>
      <trkpt lat="45.16321" lon="4.56102">
        <ele>735.07</ele>
        <time>2017-01-29T09:30:19Z</time>
      </trkpt>
      <trkpt lat="45.1632" lon="4.56098">
        <ele>734.58</ele>
        <time>2017-01-29T09:30:22Z</time>
      </trkpt>
      <trkpt lat="45.16318" lon="4.56068">
        <ele>733.62</ele>
        <time>2017-01-29T09:30:40Z</time>
      </trkpt>
      <trkpt lat="45.16319" lon="4.56047">
        <ele>732.66</ele>
        <time>2017-01-29T09:30:54Z</time>
      </trkpt>
      <trkpt lat="45.16324" lon="4.5602">
        <ele>731.22</ele>
        <time>2017-01-29T09:31:10Z</time>
      </trkpt>
      <trkpt lat="45.16331" lon="4.55986">
        <ele>728.82</ele>
        <time>2017-01-29T09:31:30Z</time>
      </trkpt>
      <trkpt lat="45.16333" lon="4.55953">
        <ele>726.89</ele>
        <time>2017-01-29T09:31:48Z</time>
      </trkpt>
      <trkpt lat="45.16334" lon="4.55924">
        <ele>725.93</ele>
        <time>2017-01-29T09:32:04Z</time>
      </trkpt>
      <trkpt lat="45.1634" lon="4.5589">
        <ele>723.53</ele>
        <time>2017-01-29T09:32:23Z</time>
      </trkpt>
      <trkpt lat="45.16345" lon="4.55854">
        <ele>722.09</ele>
        <time>2017-01-29T09:32:42Z</time>
      </trkpt>
      <trkpt lat="45.16347" lon="4.55846">
        <ele>721.61</ele>
        <time>2017-01-29T09:32:53Z</time>
      </trkpt>
      <trkpt lat="45.1635" lon="4.55817">
        <ele>720.16</ele>
        <time>2017-01-29T09:33:10Z</time>
      </trkpt>
      <trkpt lat="45.16351" lon="4.55786">
        <ele>718.72</ele>
        <time>2017-01-29T09:33:27Z</time>
      </trkpt>
      <trkpt lat="45.16351" lon="4.55755">
        <ele>717.28</ele>
        <time>2017-01-29T09:33:44Z</time>
      </trkpt>
      <trkpt lat="45.16351" lon="4.55727">
        <ele>715.84</ele>
        <time>2017-01-29T09:33:59Z</time>
      </trkpt>
      <trkpt lat="45.16351" lon="4.55698">
        <ele>714.4</ele>
        <time>2017-01-29T09:34:15Z</time>
      </trkpt>
      <trkpt lat="45.16346" lon="4.55683">
        <ele>712.95</ele>
        <time>2017-01-29T09:34:27Z</time>
      </trkpt>
      <trkpt lat="45.16335" lon="4.55678">
        <ele>711.51</ele>
        <time>2017-01-29T09:34:40Z</time>
      </trkpt>
      <trkpt lat="45.16325" lon="4.55695">
        <ele>710.07</ele>
        <time>2017-01-29T09:34:55Z</time>
      </trkpt>
      <trkpt lat="45.16313" lon="4.55714">
        <ele>708.63</ele>
        <time>2017-01-29T09:35:11Z</time>
      </trkpt>
      <trkpt lat="45.16302" lon="4.5574">
        <ele>707.19</ele>
        <time>2017-01-29T09:35:27Z</time>
      </trkpt>
      <trkpt lat="45.16288" lon="4.55768">
        <ele>705.26</ele>
        <time>2017-01-29T09:35:45Z</time>
      </trkpt>
      <trkpt lat="45.16277" lon="4.55794">
        <ele>703.34</ele>
        <time>2017-01-29T09:36:02Z</time>
      </trkpt>
      <trkpt lat="45.16269" lon="4.55818">
        <ele>702.38</ele>
        <time>2017-01-29T09:36:15Z</time>
      </trkpt>
      <trkpt lat="45.16259" lon="4.55842">
        <ele>702.38</ele>
        <time>2017-01-29T09:36:32Z</time>
      </trkpt>
      <trkpt lat="45.16248" lon="4.55862">
        <ele>704.3</ele>
        <time>2017-01-29T09:36:47Z</time>
      </trkpt>
      <trkpt lat="45.16235" lon="4.55886">
        <ele>705.26</ele>
        <time>2017-01-29T09:37:03Z</time>
      </trkpt>
      <trkpt lat="45.16232" lon="4.55892">
        <ele>705.26</ele>
        <time>2017-01-29T09:37:17Z</time>
      </trkpt>
      <trkpt lat="45.16228" lon="4.55892">
        <ele>705.26</ele>
        <time>2017-01-29T09:37:36Z</time>
      </trkpt>
      <trkpt lat="45.16223" lon="4.55896">
        <ele>704.78</ele>
        <time>2017-01-29T09:37:53Z</time>
      </trkpt>
      <trkpt lat="45.16215" lon="4.55907">
        <ele>706.23</ele>
        <time>2017-01-29T09:38:09Z</time>
      </trkpt>
      <trkpt lat="45.16209" lon="4.55913">
        <ele>706.71</ele>
        <time>2017-01-29T09:38:22Z</time>
      </trkpt>
      <trkpt lat="45.16194" lon="4.55918">
        <ele>707.19</ele>
        <time>2017-01-29T09:38:37Z</time>
      </trkpt>
      <trkpt lat="45.16177" lon="4.55916">
        <ele>708.15</ele>
        <time>2017-01-29T09:38:54Z</time>
      </trkpt>
      <trkpt lat="45.16166" lon="4.55911">
        <ele>709.59</ele>
        <time>2017-01-29T09:39:09Z</time>
      </trkpt>
      <trkpt lat="45.16156" lon="4.55904">
        <ele>710.55</ele>
        <time>2017-01-29T09:39:21Z</time>
      </trkpt>
      <trkpt lat="45.16143" lon="4.55897">
        <ele>711.99</ele>
        <time>2017-01-29T09:39:36Z</time>
      </trkpt>
      <trkpt lat="45.1613" lon="4.55892">
        <ele>713.92</ele>
        <time>2017-01-29T09:39:52Z</time>
      </trkpt>
      <trkpt lat="45.16116" lon="4.55883">
        <ele>716.32</ele>
        <time>2017-01-29T09:40:09Z</time>
      </trkpt>
      <trkpt lat="45.16105" lon="4.55873">
        <ele>717.76</ele>
        <time>2017-01-29T09:40:24Z</time>
      </trkpt>
      <trkpt lat="45.16094" lon="4.55865">
        <ele>719.68</ele>
        <time>2017-01-29T09:40:38Z</time>
      </trkpt>
      <trkpt lat="45.16086" lon="4.55861">
        <ele>721.13</ele>
        <time>2017-01-29T09:40:48Z</time>
      </trkpt>
      <trkpt lat="45.16074" lon="4.55854">
        <ele>722.57</ele>
        <time>2017-01-29T09:41:02Z</time>
      </trkpt>
      <trkpt lat="45.16059" lon="4.55842">
        <ele>724.49</ele>
        <time>2017-01-29T09:41:20Z</time>
      </trkpt>
      <trkpt lat="45.16051" lon="4.55826">
        <ele>726.41</ele>
        <time>2017-01-29T09:41:35Z</time>
      </trkpt>
      <trkpt lat="45.16048" lon="4.55815">
        <ele>726.89</ele>
        <time>2017-01-29T09:41:44Z</time>
      </trkpt>
      <trkpt lat="45.16043" lon="4.55796">
        <ele>728.34</ele>
        <time>2017-01-29T09:42:00Z</time>
      </trkpt>
      <trkpt lat="45.16041" lon="4.55781">
        <ele>729.3</ele>
        <time>2017-01-29T09:42:13Z</time>
      </trkpt>
      <trkpt lat="45.1604" lon="4.55764">
        <ele>730.74</ele>
        <time>2017-01-29T09:42:26Z</time>
      </trkpt>
      <trkpt lat="45.1604" lon="4.55746">
        <ele>731.7</ele>
        <time>2017-01-29T09:42:41Z</time>
      </trkpt>
      <trkpt lat="45.1604" lon="4.55726">
        <ele>733.14</ele>
        <time>2017-01-29T09:42:57Z</time>
      </trkpt>
      <trkpt lat="45.16041" lon="4.5572">
        <ele>733.14</ele>
        <time>2017-01-29T09:43:01Z</time>
      </trkpt>
      <trkpt lat="45.16045" lon="4.55696">
        <ele>734.58</ele>
        <time>2017-01-29T09:43:19Z</time>
      </trkpt>
      <trkpt lat="45.16046" lon="4.55694">
        <ele>734.58</ele>
        <time>2017-01-29T09:43:21Z</time>
      </trkpt>
      <trkpt lat="45.16049" lon="4.55684">
        <ele>735.07</ele>
        <time>2017-01-29T09:43:29Z</time>
      </trkpt>
      <trkpt lat="45.16055" lon="4.55664">
        <ele>736.51</ele>
        <time>2017-01-29T09:43:48Z</time>
      </trkpt>
      <trkpt lat="45.16057" lon="4.55652">
        <ele>737.47</ele>
        <time>2017-01-29T09:44:00Z</time>
      </trkpt>
      <trkpt lat="45.16061" lon="4.55646">
        <ele>739.39</ele>
        <time>2017-01-29T09:44:12Z</time>
      </trkpt>
      <trkpt lat="45.16057" lon="4.55663">
        <ele>741.31</ele>
        <time>2017-01-29T09:44:29Z</time>
      </trkpt>
      <trkpt lat="45.16056" lon="4.55681">
        <ele>741.79</ele>
        <time>2017-01-29T09:44:43Z</time>
      </trkpt>
      <trkpt lat="45.16059" lon="4.55697">
        <ele>742.28</ele>
        <time>2017-01-29T09:44:57Z</time>
      </trkpt>
      <trkpt lat="45.16061" lon="4.55717">
        <ele>742.28</ele>
        <time>2017-01-29T09:45:11Z</time>
      </trkpt>
      <trkpt lat="45.16061" lon="4.5572">
        <ele>742.28</ele>
        <time>2017-01-29T09:45:13Z</time>
      </trkpt>
      <trkpt lat="45.16067" lon="4.55739">
        <ele>742.76</ele>
        <time>2017-01-29T09:45:28Z</time>
      </trkpt>
      <trkpt lat="45.16071" lon="4.55751">
        <ele>742.76</ele>
        <time>2017-01-29T09:45:40Z</time>
      </trkpt>
      <trkpt lat="45.16078" lon="4.55769">
        <ele>743.24</ele>
        <time>2017-01-29T09:45:55Z</time>
      </trkpt>
      <trkpt lat="45.1608" lon="4.55773">
        <ele>743.24</ele>
        <time>2017-01-29T09:45:58Z</time>
      </trkpt>
      <trkpt lat="45.16087" lon="4.5578">
        <ele>745.16</ele>
        <time>2017-01-29T09:46:14Z</time>
      </trkpt>
      <trkpt lat="45.16086" lon="4.55768">
        <ele>747.56</ele>
        <time>2017-01-29T09:46:29Z</time>
      </trkpt>
      <trkpt lat="45.16084" lon="4.55751">
        <ele>749.49</ele>
        <time>2017-01-29T09:46:44Z</time>
      </trkpt>
      <trkpt lat="45.16083" lon="4.55731">
        <ele>751.41</ele>
        <time>2017-01-29T09:47:00Z</time>
      </trkpt>
      <trkpt lat="45.16085" lon="4.55713">
        <ele>753.81</ele>
        <time>2017-01-29T09:47:21Z</time>
      </trkpt>
      <trkpt lat="45.16091" lon="4.55704">
        <ele>756.21</ele>
        <time>2017-01-29T09:47:37Z</time>
      </trkpt>
      <trkpt lat="45.16093" lon="4.55701">
        <ele>759.1</ele>
        <time>2017-01-29T09:47:46Z</time>
      </trkpt>
      <trkpt lat="45.16095" lon="4.55702">
        <ele>759.58</ele>
        <time>2017-01-29T09:47:51Z</time>
      </trkpt>
      <trkpt lat="45.16104" lon="4.55702">
        <ele>761.02</ele>
        <time>2017-01-29T09:48:09Z</time>
      </trkpt>
      <trkpt lat="45.16111" lon="4.55692">
        <ele>762.94</ele>
        <time>2017-01-29T09:48:24Z</time>
      </trkpt>
      <trkpt lat="45.16114" lon="4.55674">
        <ele>764.87</ele>
        <time>2017-01-29T09:48:41Z</time>
      </trkpt>
      <trkpt lat="45.16117" lon="4.55655">
        <ele>767.27</ele>
        <time>2017-01-29T09:49:00Z</time>
      </trkpt>
      <trkpt lat="45.16121" lon="4.55641">
        <ele>768.71</ele>
        <time>2017-01-29T09:49:15Z</time>
      </trkpt>
      <trkpt lat="45.16125" lon="4.55624">
        <ele>770.63</ele>
        <time>2017-01-29T09:49:33Z</time>
      </trkpt>
      <trkpt lat="45.1613" lon="4.55607">
        <ele>772.56</ele>
        <time>2017-01-29T09:49:49Z</time>
      </trkpt>
      <trkpt lat="45.16133" lon="4.55601">
        <ele>773.04</ele>
        <time>2017-01-29T09:50:13Z</time>
      </trkpt>
      <trkpt lat="45.16134" lon="4.55599">
        <ele>773.04</ele>
        <time>2017-01-29T09:50:38Z</time>
      </trkpt>
      <trkpt lat="45.16135" lon="4.55599">
        <ele>772.08</ele>
        <time>2017-01-29T09:50:57Z</time>
      </trkpt>
      <trkpt lat="45.16134" lon="4.55607">
        <ele>773.04</ele>
        <time>2017-01-29T09:51:22Z</time>
      </trkpt>
      <trkpt lat="45.1613" lon="4.55614">
        <ele>773.04</ele>
        <time>2017-01-29T09:51:45Z</time>
      </trkpt>
      <trkpt lat="45.16132" lon="4.5563">
        <ele>775.44</ele>
        <time>2017-01-29T09:52:00Z</time>
      </trkpt>
      <trkpt lat="45.16141" lon="4.55639">
        <ele>777.36</ele>
        <time>2017-01-29T09:52:15Z</time>
      </trkpt>
      <trkpt lat="45.16149" lon="4.55627">
        <ele>778.81</ele>
        <time>2017-01-29T09:52:30Z</time>
      </trkpt>
      <trkpt lat="45.1615" lon="4.55615">
        <ele>780.73</ele>
        <time>2017-01-29T09:52:44Z</time>
      </trkpt>
      <trkpt lat="45.16159" lon="4.55599">
        <ele>782.65</ele>
        <time>2017-01-29T09:53:02Z</time>
      </trkpt>
      <trkpt lat="45.16166" lon="4.55581">
        <ele>782.65</ele>
        <time>2017-01-29T09:53:18Z</time>
      </trkpt>
      <trkpt lat="45.16175" lon="4.55559">
        <ele>784.09</ele>
        <time>2017-01-29T09:53:34Z</time>
      </trkpt>
      <trkpt lat="45.16185" lon="4.5554">
        <ele>785.53</ele>
        <time>2017-01-29T09:53:49Z</time>
      </trkpt>
      <trkpt lat="45.16191" lon="4.55522">
        <ele>787.46</ele>
        <time>2017-01-29T09:54:03Z</time>
      </trkpt>
      <trkpt lat="45.162" lon="4.55508">
        <ele>788.42</ele>
        <time>2017-01-29T09:54:16Z</time>
      </trkpt>
      <trkpt lat="45.16205" lon="4.55499">
        <ele>790.34</ele>
        <time>2017-01-29T09:54:29Z</time>
      </trkpt>
      <trkpt lat="45.16211" lon="4.55506">
        <ele>789.86</ele>
        <time>2017-01-29T09:55:18Z</time>
      </trkpt>
      <trkpt lat="45.16212" lon="4.55507">
        <ele>789.86</ele>
        <time>2017-01-29T09:55:34Z</time>
      </trkpt>
      <trkpt lat="45.16213" lon="4.55507">
        <ele>789.86</ele>
        <time>2017-01-29T09:56:14Z</time>
      </trkpt>
      <trkpt lat="45.1621" lon="4.55504">
        <ele>789.86</ele>
        <time>2017-01-29T09:57:12Z</time>
      </trkpt>
      <trkpt lat="45.16209" lon="4.55501">
        <ele>789.86</ele>
        <time>2017-01-29T09:57:29Z</time>
      </trkpt>
      <trkpt lat="45.16211" lon="4.55484">
        <ele>790.34</ele>
        <time>2017-01-29T09:57:45Z</time>
      </trkpt>
      <trkpt lat="45.16216" lon="4.55467">
        <ele>791.3</ele>
        <time>2017-01-29T09:58:02Z</time>
      </trkpt>
      <trkpt lat="45.1622" lon="4.55451">
        <ele>792.74</ele>
        <time>2017-01-29T09:58:17Z</time>
      </trkpt>
      <trkpt lat="45.16223" lon="4.55439">
        <ele>794.19</ele>
        <time>2017-01-29T09:58:32Z</time>
      </trkpt>
      <trkpt lat="45.16229" lon="4.55425">
        <ele>795.63</ele>
        <time>2017-01-29T09:58:47Z</time>
      </trkpt>
      <trkpt lat="45.16229" lon="4.55414">
        <ele>797.55</ele>
        <time>2017-01-29T09:59:01Z</time>
      </trkpt>
      <trkpt lat="45.16232" lon="4.55413">
        <ele>797.55</ele>
        <time>2017-01-29T09:59:28Z</time>
      </trkpt>
      <trkpt lat="45.16227" lon="4.55402">
        <ele>798.99</ele>
        <time>2017-01-29T09:59:45Z</time>
      </trkpt>
      <trkpt lat="45.1623" lon="4.55386">
        <ele>799.47</ele>
        <time>2017-01-29T09:59:59Z</time>
      </trkpt>
      <trkpt lat="45.16232" lon="4.55371">
        <ele>800.92</ele>
        <time>2017-01-29T10:00:11Z</time>
      </trkpt>
      <trkpt lat="45.16233" lon="4.55354">
        <ele>802.36</ele>
        <time>2017-01-29T10:00:26Z</time>
      </trkpt>
      <trkpt lat="45.16236" lon="4.55338">
        <ele>804.28</ele>
        <time>2017-01-29T10:00:43Z</time>
      </trkpt>
      <trkpt lat="45.16238" lon="4.55323">
        <ele>806.2</ele>
        <time>2017-01-29T10:00:58Z</time>
      </trkpt>
      <trkpt lat="45.16238" lon="4.55311">
        <ele>808.13</ele>
        <time>2017-01-29T10:01:12Z</time>
      </trkpt>
      <trkpt lat="45.1624" lon="4.553">
        <ele>811.01</ele>
        <time>2017-01-29T10:01:28Z</time>
      </trkpt>
      <trkpt lat="45.16246" lon="4.55287">
        <ele>812.93</ele>
        <time>2017-01-29T10:01:42Z</time>
      </trkpt>
      <trkpt lat="45.16249" lon="4.55275">
        <ele>815.34</ele>
        <time>2017-01-29T10:01:59Z</time>
      </trkpt>
      <trkpt lat="45.1625" lon="4.5526">
        <ele>817.26</ele>
        <time>2017-01-29T10:02:14Z</time>
      </trkpt>
      <trkpt lat="45.1625" lon="4.55244">
        <ele>819.18</ele>
        <time>2017-01-29T10:02:30Z</time>
      </trkpt>
      <trkpt lat="45.16251" lon="4.55228">
        <ele>820.62</ele>
        <time>2017-01-29T10:02:47Z</time>
      </trkpt>
      <trkpt lat="45.16254" lon="4.55209">
        <ele>822.06</ele>
        <time>2017-01-29T10:03:04Z</time>
      </trkpt>
      <trkpt lat="45.16259" lon="4.55193">
        <ele>823.51</ele>
        <time>2017-01-29T10:03:19Z</time>
      </trkpt>
      <trkpt lat="45.16262" lon="4.55184">
        <ele>824.47</ele>
        <time>2017-01-29T10:03:34Z</time>
      </trkpt>
      <trkpt lat="45.16273" lon="4.55183">
        <ele>824.95</ele>
        <time>2017-01-29T10:03:52Z</time>
      </trkpt>
      <trkpt lat="45.16285" lon="4.55175">
        <ele>824.95</ele>
        <time>2017-01-29T10:04:09Z</time>
      </trkpt>
      <trkpt lat="45.16288" lon="4.5517">
        <ele>823.03</ele>
        <time>2017-01-29T10:04:14Z</time>
      </trkpt>
      <trkpt lat="45.16299" lon="4.5515">
        <ele>822.55</ele>
        <time>2017-01-29T10:04:31Z</time>
      </trkpt>
      <trkpt lat="45.16309" lon="4.55128">
        <ele>821.58</ele>
        <time>2017-01-29T10:04:48Z</time>
      </trkpt>
      <trkpt lat="45.16318" lon="4.55111">
        <ele>820.14</ele>
        <time>2017-01-29T10:05:04Z</time>
      </trkpt>
      <trkpt lat="45.16324" lon="4.55101">
        <ele>819.66</ele>
        <time>2017-01-29T10:05:20Z</time>
      </trkpt>
      <trkpt lat="45.16329" lon="4.5509">
        <ele>819.18</ele>
        <time>2017-01-29T10:05:39Z</time>
      </trkpt>
      <trkpt lat="45.16338" lon="4.55073">
        <ele>818.22</ele>
        <time>2017-01-29T10:05:53Z</time>
      </trkpt>
      <trkpt lat="45.16349" lon="4.55054">
        <ele>816.78</ele>
        <time>2017-01-29T10:06:08Z</time>
      </trkpt>
      <trkpt lat="45.1636" lon="4.55042">
        <ele>814.85</ele>
        <time>2017-01-29T10:06:20Z</time>
      </trkpt>
      <trkpt lat="45.16363" lon="4.55041">
        <ele>814.85</ele>
        <time>2017-01-29T10:06:23Z</time>
      </trkpt>
      <trkpt lat="45.16388" lon="4.5504">
        <ele>812.93</ele>
        <time>2017-01-29T10:06:41Z</time>
      </trkpt>
      <trkpt lat="45.16401" lon="4.5504">
        <ele>812.45</ele>
        <time>2017-01-29T10:06:54Z</time>
      </trkpt>
      <trkpt lat="45.16419" lon="4.5504">
        <ele>811.01</ele>
        <time>2017-01-29T10:07:08Z</time>
      </trkpt>
      <trkpt lat="45.16426" lon="4.5504">
        <ele>810.53</ele>
        <time>2017-01-29T10:07:14Z</time>
      </trkpt>
      <trkpt lat="45.16443" lon="4.55038">
        <ele>809.57</ele>
        <time>2017-01-29T10:07:28Z</time>
      </trkpt>
      <trkpt lat="45.16458" lon="4.55051">
        <ele>809.09</ele>
        <time>2017-01-29T10:07:43Z</time>
      </trkpt>
      <trkpt lat="45.16459" lon="4.55054">
        <ele>809.09</ele>
        <time>2017-01-29T10:07:45Z</time>
      </trkpt>
      <trkpt lat="45.16467" lon="4.55076">
        <ele>809.09</ele>
        <time>2017-01-29T10:08:00Z</time>
      </trkpt>
      <trkpt lat="45.16475" lon="4.55095">
        <ele>810.53</ele>
        <time>2017-01-29T10:08:16Z</time>
      </trkpt>
      <trkpt lat="45.16487" lon="4.55115">
        <ele>810.53</ele>
        <time>2017-01-29T10:08:34Z</time>
      </trkpt>
      <trkpt lat="45.16488" lon="4.55116">
        <ele>810.53</ele>
        <time>2017-01-29T10:08:35Z</time>
      </trkpt>
      <trkpt lat="45.165" lon="4.55143">
        <ele>808.61</ele>
        <time>2017-01-29T10:08:56Z</time>
      </trkpt>
      <trkpt lat="45.16505" lon="4.55152">
        <ele>808.61</ele>
        <time>2017-01-29T10:09:10Z</time>
      </trkpt>
      <trkpt lat="45.16515" lon="4.55175">
        <ele>807.16</ele>
        <time>2017-01-29T10:09:26Z</time>
      </trkpt>
      <trkpt lat="45.16528" lon="4.55198">
        <ele>805.72</ele>
        <time>2017-01-29T10:09:45Z</time>
      </trkpt>
      <trkpt lat="45.16534" lon="4.55206">
        <ele>804.76</ele>
        <time>2017-01-29T10:09:53Z</time>
      </trkpt>
      <trkpt lat="45.16547" lon="4.55209">
        <ele>804.28</ele>
        <time>2017-01-29T10:10:10Z</time>
      </trkpt>
      <trkpt lat="45.1655" lon="4.55207">
        <ele>804.28</ele>
        <time>2017-01-29T10:10:28Z</time>
      </trkpt>
      <trkpt lat="45.16549" lon="4.55206">
        <ele>804.28</ele>
        <time>2017-01-29T10:10:57Z</time>
      </trkpt>
      <trkpt lat="45.16551" lon="4.55204">
        <ele>804.28</ele>
        <time>2017-01-29T10:11:19Z</time>
      </trkpt>
      <trkpt lat="45.1655" lon="4.55205">
        <ele>804.28</ele>
        <time>2017-01-29T10:11:43Z</time>
      </trkpt>
      <trkpt lat="45.16551" lon="4.55205">
        <ele>804.28</ele>
        <time>2017-01-29T10:12:06Z</time>
      </trkpt>
      <trkpt lat="45.16555" lon="4.55197">
        <ele>805.72</ele>
        <time>2017-01-29T10:12:27Z</time>
      </trkpt>
      <trkpt lat="45.16562" lon="4.55192">
        <ele>806.68</ele>
        <time>2017-01-29T10:12:35Z</time>
      </trkpt>
      <trkpt lat="45.16573" lon="4.55184">
        <ele>808.61</ele>
        <time>2017-01-29T10:12:51Z</time>
      </trkpt>
      <trkpt lat="45.16584" lon="4.55174">
        <ele>811.01</ele>
        <time>2017-01-29T10:13:08Z</time>
      </trkpt>
      <trkpt lat="45.16597" lon="4.55166">
        <ele>812.93</ele>
        <time>2017-01-29T10:13:22Z</time>
      </trkpt>
      <trkpt lat="45.16609" lon="4.55167">
        <ele>814.85</ele>
        <time>2017-01-29T10:13:35Z</time>
      </trkpt>
      <trkpt lat="45.16619" lon="4.55171">
        <ele>816.3</ele>
        <time>2017-01-29T10:13:46Z</time>
      </trkpt>
      <trkpt lat="45.1662" lon="4.55169">
        <ele>818.7</ele>
        <time>2017-01-29T10:14:01Z</time>
      </trkpt>
      <trkpt lat="45.1661" lon="4.55159">
        <ele>819.66</ele>
        <time>2017-01-29T10:14:16Z</time>
      </trkpt>
      <trkpt lat="45.16602" lon="4.55148">
        <ele>821.58</ele>
        <time>2017-01-29T10:14:30Z</time>
      </trkpt>
      <trkpt lat="45.16594" lon="4.55141">
        <ele>823.99</ele>
        <time>2017-01-29T10:14:46Z</time>
      </trkpt>
      <trkpt lat="45.16581" lon="4.55127">
        <ele>826.87</ele>
        <time>2017-01-29T10:15:02Z</time>
      </trkpt>
      <trkpt lat="45.16575" lon="4.5512">
        <ele>828.31</ele>
        <time>2017-01-29T10:15:14Z</time>
      </trkpt>
      <trkpt lat="45.1657" lon="4.55106">
        <ele>830.24</ele>
        <time>2017-01-29T10:15:30Z</time>
      </trkpt>
      <trkpt lat="45.16574" lon="4.55091">
        <ele>832.64</ele>
        <time>2017-01-29T10:15:45Z</time>
      </trkpt>
      <trkpt lat="45.16574" lon="4.55077">
        <ele>835.52</ele>
        <time>2017-01-29T10:16:02Z</time>
      </trkpt>
      <trkpt lat="45.16571" lon="4.55065">
        <ele>837.45</ele>
        <time>2017-01-29T10:16:16Z</time>
      </trkpt>
      <trkpt lat="45.16569" lon="4.55053">
        <ele>840.33</ele>
        <time>2017-01-29T10:16:33Z</time>
      </trkpt>
      <trkpt lat="45.16568" lon="4.5504">
        <ele>842.73</ele>
        <time>2017-01-29T10:16:49Z</time>
      </trkpt>
      <trkpt lat="45.16568" lon="4.55026">
        <ele>845.14</ele>
        <time>2017-01-29T10:17:03Z</time>
      </trkpt>
      <trkpt lat="45.16569" lon="4.55009">
        <ele>848.02</ele>
        <time>2017-01-29T10:17:20Z</time>
      </trkpt>
      <trkpt lat="45.16572" lon="4.54994">
        <ele>849.94</ele>
        <time>2017-01-29T10:17:35Z</time>
      </trkpt>
      <trkpt lat="45.16575" lon="4.5498">
        <ele>851.87</ele>
        <time>2017-01-29T10:17:52Z</time>
      </trkpt>
      <trkpt lat="45.16577" lon="4.54968">
        <ele>854.75</ele>
        <time>2017-01-29T10:18:09Z</time>
      </trkpt>
      <trkpt lat="45.16583" lon="4.54956">
        <ele>857.15</ele>
        <time>2017-01-29T10:18:25Z</time>
      </trkpt>
      <trkpt lat="45.16589" lon="4.54945">
        <ele>860.04</ele>
        <time>2017-01-29T10:18:40Z</time>
      </trkpt>
      <trkpt lat="45.16599" lon="4.54933">
        <ele>862.92</ele>
        <time>2017-01-29T10:18:57Z</time>
      </trkpt>
      <trkpt lat="45.16606" lon="4.54924">
        <ele>864.84</ele>
        <time>2017-01-29T10:19:10Z</time>
      </trkpt>
      <trkpt lat="45.16614" lon="4.54913">
        <ele>867.73</ele>
        <time>2017-01-29T10:19:25Z</time>
      </trkpt>
      <trkpt lat="45.16624" lon="4.54897">
        <ele>869.65</ele>
        <time>2017-01-29T10:19:41Z</time>
      </trkpt>
      <trkpt lat="45.16632" lon="4.54886">
        <ele>873.01</ele>
        <time>2017-01-29T10:22:21Z</time>
      </trkpt>
      <trkpt lat="45.16632" lon="4.54899">
        <ele>873.01</ele>
        <time>2017-01-29T10:22:37Z</time>
      </trkpt>
      <trkpt lat="45.16632" lon="4.54915">
        <ele>873.98</ele>
        <time>2017-01-29T10:22:53Z</time>
      </trkpt>
      <trkpt lat="45.16632" lon="4.54932">
        <ele>876.38</ele>
        <time>2017-01-29T10:23:09Z</time>
      </trkpt>
      <trkpt lat="45.16633" lon="4.54949">
        <ele>878.3</ele>
        <time>2017-01-29T10:23:25Z</time>
      </trkpt>
      <trkpt lat="45.16637" lon="4.54967">
        <ele>880.22</ele>
        <time>2017-01-29T10:23:41Z</time>
      </trkpt>
      <trkpt lat="45.16643" lon="4.54979">
        <ele>881.19</ele>
        <time>2017-01-29T10:23:58Z</time>
      </trkpt>
      <trkpt lat="45.16653" lon="4.54989">
        <ele>883.59</ele>
        <time>2017-01-29T10:24:13Z</time>
      </trkpt>
      <trkpt lat="45.16661" lon="4.54996">
        <ele>885.03</ele>
        <time>2017-01-29T10:24:27Z</time>
      </trkpt>
      <trkpt lat="45.16671" lon="4.54995">
        <ele>886.47</ele>
        <time>2017-01-29T10:24:42Z</time>
      </trkpt>
      <trkpt lat="45.16679" lon="4.54986">
        <ele>887.43</ele>
        <time>2017-01-29T10:24:56Z</time>
      </trkpt>
      <trkpt lat="45.16682" lon="4.54973">
        <ele>889.36</ele>
        <time>2017-01-29T10:25:10Z</time>
      </trkpt>
      <trkpt lat="45.16691" lon="4.54952">
        <ele>890.8</ele>
        <time>2017-01-29T10:25:27Z</time>
      </trkpt>
      <trkpt lat="45.16697" lon="4.54937">
        <ele>892.24</ele>
        <time>2017-01-29T10:25:44Z</time>
      </trkpt>
      <trkpt lat="45.16705" lon="4.5493">
        <ele>893.68</ele>
        <time>2017-01-29T10:25:57Z</time>
      </trkpt>
      <trkpt lat="45.16713" lon="4.54924">
        <ele>895.12</ele>
        <time>2017-01-29T10:26:12Z</time>
      </trkpt>
      <trkpt lat="45.16727" lon="4.54913">
        <ele>896.57</ele>
        <time>2017-01-29T10:26:30Z</time>
      </trkpt>
      <trkpt lat="45.16737" lon="4.54904">
        <ele>898.49</ele>
        <time>2017-01-29T10:26:46Z</time>
      </trkpt>
      <trkpt lat="45.16745" lon="4.54892">
        <ele>900.89</ele>
        <time>2017-01-29T10:27:03Z</time>
      </trkpt>
      <trkpt lat="45.16753" lon="4.54885">
        <ele>903.78</ele>
        <time>2017-01-29T10:27:17Z</time>
      </trkpt>
      <trkpt lat="45.16762" lon="4.54879">
        <ele>906.18</ele>
        <time>2017-01-29T10:27:31Z</time>
      </trkpt>
      <trkpt lat="45.1677" lon="4.54874">
        <ele>908.58</ele>
        <time>2017-01-29T10:27:43Z</time>
      </trkpt>
      <trkpt lat="45.16785" lon="4.54865">
        <ele>911.47</ele>
        <time>2017-01-29T10:27:58Z</time>
      </trkpt>
      <trkpt lat="45.16794" lon="4.54857">
        <ele>913.39</ele>
        <time>2017-01-29T10:28:09Z</time>
      </trkpt>
      <trkpt lat="45.16804" lon="4.54845">
        <ele>917.24</ele>
        <time>2017-01-29T10:28:24Z</time>
      </trkpt>
      <trkpt lat="45.16811" lon="4.54837">
        <ele>919.16</ele>
        <time>2017-01-29T10:28:38Z</time>
      </trkpt>
      <trkpt lat="45.16821" lon="4.5483">
        <ele>921.56</ele>
        <time>2017-01-29T10:28:54Z</time>
      </trkpt>
      <trkpt lat="45.16831" lon="4.54825">
        <ele>923.48</ele>
        <time>2017-01-29T10:29:08Z</time>
      </trkpt>
      <trkpt lat="45.16841" lon="4.54821">
        <ele>925.89</ele>
        <time>2017-01-29T10:29:21Z</time>
      </trkpt>
      <trkpt lat="45.16851" lon="4.54818">
        <ele>927.81</ele>
        <time>2017-01-29T10:29:34Z</time>
      </trkpt>
      <trkpt lat="45.16861" lon="4.54815">
        <ele>929.73</ele>
        <time>2017-01-29T10:29:47Z</time>
      </trkpt>
      <trkpt lat="45.16868" lon="4.54805">
        <ele>932.14</ele>
        <time>2017-01-29T10:30:00Z</time>
      </trkpt>
      <trkpt lat="45.16873" lon="4.54802">
        <ele>932.62</ele>
        <time>2017-01-29T10:30:27Z</time>
      </trkpt>
      <trkpt lat="45.1687" lon="4.54802">
        <ele>932.62</ele>
        <time>2017-01-29T10:30:44Z</time>
      </trkpt>
      <trkpt lat="45.16871" lon="4.54801">
        <ele>932.62</ele>
        <time>2017-01-29T10:31:01Z</time>
      </trkpt>
      <trkpt lat="45.16867" lon="4.54791">
        <ele>933.58</ele>
        <time>2017-01-29T10:31:16Z</time>
      </trkpt>
      <trkpt lat="45.1686" lon="4.54777">
        <ele>935.02</ele>
        <time>2017-01-29T10:31:32Z</time>
      </trkpt>
      <trkpt lat="45.16854" lon="4.54763">
        <ele>936.46</ele>
        <time>2017-01-29T10:31:45Z</time>
      </trkpt>
      <trkpt lat="45.1685" lon="4.5475">
        <ele>937.42</ele>
        <time>2017-01-29T10:31:57Z</time>
      </trkpt>
      <trkpt lat="45.16846" lon="4.54734">
        <ele>938.86</ele>
        <time>2017-01-29T10:32:12Z</time>
      </trkpt>
      <trkpt lat="45.16842" lon="4.54716">
        <ele>940.31</ele>
        <time>2017-01-29T10:32:26Z</time>
      </trkpt>
      <trkpt lat="45.1684" lon="4.54703">
        <ele>941.75</ele>
        <time>2017-01-29T10:32:38Z</time>
      </trkpt>
      <trkpt lat="45.16835" lon="4.54686">
        <ele>942.71</ele>
        <time>2017-01-29T10:32:53Z</time>
      </trkpt>
      <trkpt lat="45.16833" lon="4.54666">
        <ele>944.63</ele>
        <time>2017-01-29T10:33:08Z</time>
      </trkpt>
      <trkpt lat="45.1683" lon="4.54649">
        <ele>946.56</ele>
        <time>2017-01-29T10:33:21Z</time>
      </trkpt>
      <trkpt lat="45.16827" lon="4.54633">
        <ele>947.52</ele>
        <time>2017-01-29T10:33:36Z</time>
      </trkpt>
      <trkpt lat="45.16824" lon="4.54617">
        <ele>948</ele>
        <time>2017-01-29T10:33:47Z</time>
      </trkpt>
      <trkpt lat="45.16819" lon="4.54598">
        <ele>948</ele>
        <time>2017-01-29T10:34:04Z</time>
      </trkpt>
      <trkpt lat="45.16816" lon="4.54578">
        <ele>950.4</ele>
        <time>2017-01-29T10:34:24Z</time>
      </trkpt>
      <trkpt lat="45.16806" lon="4.54557">
        <ele>952.8</ele>
        <time>2017-01-29T10:34:41Z</time>
      </trkpt>
      <trkpt lat="45.16798" lon="4.54545">
        <ele>954.73</ele>
        <time>2017-01-29T10:34:57Z</time>
      </trkpt>
      <trkpt lat="45.16791" lon="4.54534">
        <ele>956.65</ele>
        <time>2017-01-29T10:35:12Z</time>
      </trkpt>
      <trkpt lat="45.16783" lon="4.54525">
        <ele>957.61</ele>
        <time>2017-01-29T10:35:25Z</time>
      </trkpt>
      <trkpt lat="45.16774" lon="4.54512">
        <ele>957.13</ele>
        <time>2017-01-29T10:35:40Z</time>
      </trkpt>
      <trkpt lat="45.16764" lon="4.54503">
        <ele>957.13</ele>
        <time>2017-01-29T10:35:51Z</time>
      </trkpt>
      <trkpt lat="45.16753" lon="4.54496">
        <ele>955.69</ele>
        <time>2017-01-29T10:36:01Z</time>
      </trkpt>
      <trkpt lat="45.1674" lon="4.54488">
        <ele>953.28</ele>
        <time>2017-01-29T10:36:14Z</time>
      </trkpt>
      <trkpt lat="45.16724" lon="4.54482">
        <ele>951.84</ele>
        <time>2017-01-29T10:36:27Z</time>
      </trkpt>
      <trkpt lat="45.16705" lon="4.54477">
        <ele>949.92</ele>
        <time>2017-01-29T10:36:42Z</time>
      </trkpt>
      <trkpt lat="45.16689" lon="4.54473">
        <ele>948</ele>
        <time>2017-01-29T10:37:00Z</time>
      </trkpt>
      <trkpt lat="45.16677" lon="4.54466">
        <ele>945.59</ele>
        <time>2017-01-29T10:37:14Z</time>
      </trkpt>
      <trkpt lat="45.16663" lon="4.5445">
        <ele>942.71</ele>
        <time>2017-01-29T10:37:31Z</time>
      </trkpt>
      <trkpt lat="45.16657" lon="4.54446">
        <ele>941.27</ele>
        <time>2017-01-29T10:37:38Z</time>
      </trkpt>
      <trkpt lat="45.16656" lon="4.54433">
        <ele>939.83</ele>
        <time>2017-01-29T10:37:52Z</time>
      </trkpt>
      <trkpt lat="45.1666" lon="4.54428">
        <ele>941.27</ele>
        <time>2017-01-29T10:38:01Z</time>
      </trkpt>
      <trkpt lat="45.16667" lon="4.54419">
        <ele>942.71</ele>
        <time>2017-01-29T10:38:13Z</time>
      </trkpt>
      <trkpt lat="45.16674" lon="4.5441">
        <ele>944.63</ele>
        <time>2017-01-29T10:38:30Z</time>
      </trkpt>
      <trkpt lat="45.16678" lon="4.54404">
        <ele>945.11</ele>
        <time>2017-01-29T10:38:48Z</time>
      </trkpt>
      <trkpt lat="45.16683" lon="4.54392">
        <ele>946.56</ele>
        <time>2017-01-29T10:38:59Z</time>
      </trkpt>
      <trkpt lat="45.16689" lon="4.54377">
        <ele>947.52</ele>
        <time>2017-01-29T10:39:12Z</time>
      </trkpt>
      <trkpt lat="45.16695" lon="4.54361">
        <ele>948.48</ele>
        <time>2017-01-29T10:39:24Z</time>
      </trkpt>
      <trkpt lat="45.16705" lon="4.54343">
        <ele>948.48</ele>
        <time>2017-01-29T10:39:38Z</time>
      </trkpt>
      <trkpt lat="45.16717" lon="4.54327">
        <ele>948.48</ele>
        <time>2017-01-29T10:39:55Z</time>
      </trkpt>
      <trkpt lat="45.16719" lon="4.54325">
        <ele>947.04</ele>
        <time>2017-01-29T10:39:57Z</time>
      </trkpt>
      <trkpt lat="45.16729" lon="4.54309">
        <ele>945.11</ele>
        <time>2017-01-29T10:40:13Z</time>
      </trkpt>
      <trkpt lat="45.1674" lon="4.54301">
        <ele>945.11</ele>
        <time>2017-01-29T10:40:27Z</time>
      </trkpt>
      <trkpt lat="45.16755" lon="4.54295">
        <ele>946.56</ele>
        <time>2017-01-29T10:40:43Z</time>
      </trkpt>
      <trkpt lat="45.16756" lon="4.54294">
        <ele>946.56</ele>
        <time>2017-01-29T10:40:44Z</time>
      </trkpt>
      <trkpt lat="45.16768" lon="4.54284">
        <ele>948</ele>
        <time>2017-01-29T10:41:03Z</time>
      </trkpt>
      <trkpt lat="45.16782" lon="4.54267">
        <ele>948.96</ele>
        <time>2017-01-29T10:41:20Z</time>
      </trkpt>
      <trkpt lat="45.16792" lon="4.54252">
        <ele>949.44</ele>
        <time>2017-01-29T10:41:33Z</time>
      </trkpt>
      <trkpt lat="45.16803" lon="4.54232">
        <ele>948.96</ele>
        <time>2017-01-29T10:41:48Z</time>
      </trkpt>
      <trkpt lat="45.16811" lon="4.54212">
        <ele>948.96</ele>
        <time>2017-01-29T10:42:03Z</time>
      </trkpt>
      <trkpt lat="45.16823" lon="4.54195">
        <ele>949.44</ele>
        <time>2017-01-29T10:42:20Z</time>
      </trkpt>
      <trkpt lat="45.16834" lon="4.54184">
        <ele>949.44</ele>
        <time>2017-01-29T10:42:35Z</time>
      </trkpt>
      <trkpt lat="45.16844" lon="4.54171">
        <ele>949.92</ele>
        <time>2017-01-29T10:42:49Z</time>
      </trkpt>
      <trkpt lat="45.16854" lon="4.5416">
        <ele>951.84</ele>
        <time>2017-01-29T10:43:03Z</time>
      </trkpt>
      <trkpt lat="45.16863" lon="4.54149">
        <ele>951.84</ele>
        <time>2017-01-29T10:43:16Z</time>
      </trkpt>
      <trkpt lat="45.16874" lon="4.54135">
        <ele>952.32</ele>
        <time>2017-01-29T10:43:32Z</time>
      </trkpt>
      <trkpt lat="45.16888" lon="4.54122">
        <ele>953.28</ele>
        <time>2017-01-29T10:43:48Z</time>
      </trkpt>
      <trkpt lat="45.16896" lon="4.54107">
        <ele>953.28</ele>
        <time>2017-01-29T10:44:00Z</time>
      </trkpt>
      <trkpt lat="45.16905" lon="4.5409">
        <ele>954.25</ele>
        <time>2017-01-29T10:44:14Z</time>
      </trkpt>
      <trkpt lat="45.16913" lon="4.54074">
        <ele>955.21</ele>
        <time>2017-01-29T10:44:28Z</time>
      </trkpt>
      <trkpt lat="45.16921" lon="4.54061">
        <ele>955.69</ele>
        <time>2017-01-29T10:44:41Z</time>
      </trkpt>
      <trkpt lat="45.16931" lon="4.54042">
        <ele>956.17</ele>
        <time>2017-01-29T10:44:57Z</time>
      </trkpt>
      <trkpt lat="45.1694" lon="4.54028">
        <ele>956.65</ele>
        <time>2017-01-29T10:45:10Z</time>
      </trkpt>
      <trkpt lat="45.1695" lon="4.54005">
        <ele>957.61</ele>
        <time>2017-01-29T10:45:27Z</time>
      </trkpt>
      <trkpt lat="45.16959" lon="4.5399">
        <ele>958.09</ele>
        <time>2017-01-29T10:45:41Z</time>
      </trkpt>
      <trkpt lat="45.1697" lon="4.53977">
        <ele>959.05</ele>
        <time>2017-01-29T10:45:54Z</time>
      </trkpt>
      <trkpt lat="45.16979" lon="4.53962">
        <ele>960.01</ele>
        <time>2017-01-29T10:46:09Z</time>
      </trkpt>
      <trkpt lat="45.16989" lon="4.53948">
        <ele>961.46</ele>
        <time>2017-01-29T10:46:25Z</time>
      </trkpt>
      <trkpt lat="45.16996" lon="4.53933">
        <ele>963.38</ele>
        <time>2017-01-29T10:46:39Z</time>
      </trkpt>
      <trkpt lat="45.17004" lon="4.5392">
        <ele>964.82</ele>
        <time>2017-01-29T10:46:54Z</time>
      </trkpt>
      <trkpt lat="45.17011" lon="4.53905">
        <ele>966.74</ele>
        <time>2017-01-29T10:47:07Z</time>
      </trkpt>
      <trkpt lat="45.17017" lon="4.53888">
        <ele>968.18</ele>
        <time>2017-01-29T10:47:23Z</time>
      </trkpt>
      <trkpt lat="45.17022" lon="4.53873">
        <ele>969.63</ele>
        <time>2017-01-29T10:47:36Z</time>
      </trkpt>
      <trkpt lat="45.17027" lon="4.53854">
        <ele>971.55</ele>
        <time>2017-01-29T10:47:51Z</time>
      </trkpt>
      <trkpt lat="45.17036" lon="4.53834">
        <ele>972.99</ele>
        <time>2017-01-29T10:48:05Z</time>
      </trkpt>
      <trkpt lat="45.17035" lon="4.53838">
        <ele>973.95</ele>
        <time>2017-01-29T10:51:10Z</time>
      </trkpt>
      <trkpt lat="45.17034" lon="4.53853">
        <ele>975.39</ele>
        <time>2017-01-29T10:51:22Z</time>
      </trkpt>
      <trkpt lat="45.17033" lon="4.5387">
        <ele>976.84</ele>
        <time>2017-01-29T10:51:35Z</time>
      </trkpt>
      <trkpt lat="45.17033" lon="4.53889">
        <ele>978.28</ele>
        <time>2017-01-29T10:51:49Z</time>
      </trkpt>
      <trkpt lat="45.17033" lon="4.53913">
        <ele>979.72</ele>
        <time>2017-01-29T10:52:04Z</time>
      </trkpt>
      <trkpt lat="45.17034" lon="4.53935">
        <ele>981.64</ele>
        <time>2017-01-29T10:52:19Z</time>
      </trkpt>
      <trkpt lat="45.17033" lon="4.53951">
        <ele>983.57</ele>
        <time>2017-01-29T10:52:30Z</time>
      </trkpt>
      <trkpt lat="45.17031" lon="4.53971">
        <ele>984.53</ele>
        <time>2017-01-29T10:52:43Z</time>
      </trkpt>
      <trkpt lat="45.17029" lon="4.5399">
        <ele>986.45</ele>
        <time>2017-01-29T10:52:55Z</time>
      </trkpt>
      <trkpt lat="45.17029" lon="4.53994">
        <ele>986.45</ele>
        <time>2017-01-29T10:52:58Z</time>
      </trkpt>
      <trkpt lat="45.17027" lon="4.54013">
        <ele>988.37</ele>
        <time>2017-01-29T10:53:11Z</time>
      </trkpt>
      <trkpt lat="45.17023" lon="4.54031">
        <ele>989.33</ele>
        <time>2017-01-29T10:53:24Z</time>
      </trkpt>
      <trkpt lat="45.17021" lon="4.54046">
        <ele>990.78</ele>
        <time>2017-01-29T10:53:38Z</time>
      </trkpt>
      <trkpt lat="45.17018" lon="4.54063">
        <ele>992.22</ele>
        <time>2017-01-29T10:53:52Z</time>
      </trkpt>
      <trkpt lat="45.17017" lon="4.54079">
        <ele>994.14</ele>
        <time>2017-01-29T10:54:05Z</time>
      </trkpt>
      <trkpt lat="45.17014" lon="4.54095">
        <ele>997.02</ele>
        <time>2017-01-29T10:54:19Z</time>
      </trkpt>
      <trkpt lat="45.1701" lon="4.54117">
        <ele>999.91</ele>
        <time>2017-01-29T10:54:35Z</time>
      </trkpt>
      <trkpt lat="45.17012" lon="4.54131">
        <ele>1000.87</ele>
        <time>2017-01-29T10:54:50Z</time>
      </trkpt>
      <trkpt lat="45.17013" lon="4.5413">
        <ele>1002.31</ele>
        <time>2017-01-29T10:54:53Z</time>
      </trkpt>
      <trkpt lat="45.17014" lon="4.54123">
        <ele>1000.87</ele>
        <time>2017-01-29T10:55:14Z</time>
      </trkpt>
      <trkpt lat="45.17015" lon="4.54122">
        <ele>1000.87</ele>
        <time>2017-01-29T10:55:36Z</time>
      </trkpt>
      <trkpt lat="45.17017" lon="4.54121">
        <ele>1002.79</ele>
        <time>2017-01-29T10:55:56Z</time>
      </trkpt>
      <trkpt lat="45.17022" lon="4.54116">
        <ele>1001.35</ele>
        <time>2017-01-29T10:56:11Z</time>
      </trkpt>
      <trkpt lat="45.17025" lon="4.54112">
        <ele>1002.79</ele>
        <time>2017-01-29T10:56:17Z</time>
      </trkpt>
      <trkpt lat="45.17032" lon="4.54102">
        <ele>1003.75</ele>
        <time>2017-01-29T10:56:29Z</time>
      </trkpt>
      <trkpt lat="45.17038" lon="4.54091">
        <ele>1004.72</ele>
        <time>2017-01-29T10:56:41Z</time>
      </trkpt>
      <trkpt lat="45.17046" lon="4.54075">
        <ele>1006.16</ele>
        <time>2017-01-29T10:56:55Z</time>
      </trkpt>
      <trkpt lat="45.17054" lon="4.54065">
        <ele>1007.12</ele>
        <time>2017-01-29T10:57:08Z</time>
      </trkpt>
      <trkpt lat="45.17065" lon="4.54052">
        <ele>1008.56</ele>
        <time>2017-01-29T10:57:24Z</time>
      </trkpt>
      <trkpt lat="45.17074" lon="4.54035">
        <ele>1010</ele>
        <time>2017-01-29T10:57:41Z</time>
      </trkpt>
      <trkpt lat="45.17083" lon="4.54017">
        <ele>1010.96</ele>
        <time>2017-01-29T10:57:56Z</time>
      </trkpt>
      <trkpt lat="45.17093" lon="4.53997">
        <ele>1012.41</ele>
        <time>2017-01-29T10:58:14Z</time>
      </trkpt>
      <trkpt lat="45.17102" lon="4.53982">
        <ele>1013.37</ele>
        <time>2017-01-29T10:58:28Z</time>
      </trkpt>
      <trkpt lat="45.17108" lon="4.53971">
        <ele>1014.33</ele>
        <time>2017-01-29T10:58:39Z</time>
      </trkpt>
      <trkpt lat="45.17115" lon="4.53956">
        <ele>1015.29</ele>
        <time>2017-01-29T10:58:53Z</time>
      </trkpt>
      <trkpt lat="45.17123" lon="4.53939">
        <ele>1016.25</ele>
        <time>2017-01-29T10:59:08Z</time>
      </trkpt>
      <trkpt lat="45.17131" lon="4.53928">
        <ele>1017.21</ele>
        <time>2017-01-29T10:59:20Z</time>
      </trkpt>
      <trkpt lat="45.17139" lon="4.53912">
        <ele>1019.13</ele>
        <time>2017-01-29T10:59:35Z</time>
      </trkpt>
      <trkpt lat="45.17149" lon="4.53901">
        <ele>1020.1</ele>
        <time>2017-01-29T10:59:47Z</time>
      </trkpt>
      <trkpt lat="45.17156" lon="4.53892">
        <ele>1020.1</ele>
        <time>2017-01-29T10:59:59Z</time>
      </trkpt>
      <trkpt lat="45.17164" lon="4.53875">
        <ele>1021.06</ele>
        <time>2017-01-29T11:00:13Z</time>
      </trkpt>
      <trkpt lat="45.1717" lon="4.53853">
        <ele>1022.5</ele>
        <time>2017-01-29T11:00:28Z</time>
      </trkpt>
      <trkpt lat="45.17177" lon="4.5383">
        <ele>1023.46</ele>
        <time>2017-01-29T11:00:43Z</time>
      </trkpt>
      <trkpt lat="45.17184" lon="4.53806">
        <ele>1024.42</ele>
        <time>2017-01-29T11:00:58Z</time>
      </trkpt>
      <trkpt lat="45.1719" lon="4.53783">
        <ele>1024.9</ele>
        <time>2017-01-29T11:01:12Z</time>
      </trkpt>
      <trkpt lat="45.17194" lon="4.53772">
        <ele>1025.38</ele>
        <time>2017-01-29T11:01:20Z</time>
      </trkpt>
      <trkpt lat="45.17193" lon="4.53746">
        <ele>1026.83</ele>
        <time>2017-01-29T11:01:35Z</time>
      </trkpt>
      <trkpt lat="45.17199" lon="4.53723">
        <ele>1027.79</ele>
        <time>2017-01-29T11:01:49Z</time>
      </trkpt>
      <trkpt lat="45.17202" lon="4.53718">
        <ele>1028.27</ele>
        <time>2017-01-29T11:01:54Z</time>
      </trkpt>
      <trkpt lat="45.17206" lon="4.53711">
        <ele>1029.23</ele>
        <time>2017-01-29T11:02:02Z</time>
      </trkpt>
      <trkpt lat="45.17208" lon="4.53699">
        <ele>1029.71</ele>
        <time>2017-01-29T11:02:10Z</time>
      </trkpt>
      <trkpt lat="45.17213" lon="4.5368">
        <ele>1030.67</ele>
        <time>2017-01-29T11:02:23Z</time>
      </trkpt>
      <trkpt lat="45.17217" lon="4.53658">
        <ele>1031.15</ele>
        <time>2017-01-29T11:02:36Z</time>
      </trkpt>
      <trkpt lat="45.17219" lon="4.53651">
        <ele>1031.63</ele>
        <time>2017-01-29T11:02:49Z</time>
      </trkpt>
      <trkpt lat="45.1722" lon="4.53648">
        <ele>1031.15</ele>
        <time>2017-01-29T11:03:05Z</time>
      </trkpt>
      <trkpt lat="45.17221" lon="4.53643">
        <ele>1030.67</ele>
        <time>2017-01-29T11:03:26Z</time>
      </trkpt>
      <trkpt lat="45.17221" lon="4.53641">
        <ele>1031.15</ele>
        <time>2017-01-29T11:03:45Z</time>
      </trkpt>
      <trkpt lat="45.17221" lon="4.53637">
        <ele>1031.15</ele>
        <time>2017-01-29T11:04:08Z</time>
      </trkpt>
      <trkpt lat="45.17222" lon="4.53637">
        <ele>1032.11</ele>
        <time>2017-01-29T11:06:40Z</time>
      </trkpt>
      <trkpt lat="45.17222" lon="4.53644">
        <ele>1031.15</ele>
        <time>2017-01-29T11:06:58Z</time>
      </trkpt>
      <trkpt lat="45.17224" lon="4.5365">
        <ele>1031.15</ele>
        <time>2017-01-29T11:07:04Z</time>
      </trkpt>
      <trkpt lat="45.1723" lon="4.53662">
        <ele>1032.11</ele>
        <time>2017-01-29T11:07:17Z</time>
      </trkpt>
      <trkpt lat="45.17235" lon="4.53679">
        <ele>1033.55</ele>
        <time>2017-01-29T11:07:34Z</time>
      </trkpt>
      <trkpt lat="45.17246" lon="4.5369">
        <ele>1035.96</ele>
        <time>2017-01-29T11:07:51Z</time>
      </trkpt>
      <trkpt lat="45.17253" lon="4.53697">
        <ele>1037.4</ele>
        <time>2017-01-29T11:08:04Z</time>
      </trkpt>
      <trkpt lat="45.17264" lon="4.53708">
        <ele>1040.28</ele>
        <time>2017-01-29T11:08:20Z</time>
      </trkpt>
      <trkpt lat="45.17274" lon="4.53718">
        <ele>1042.21</ele>
        <time>2017-01-29T11:08:37Z</time>
      </trkpt>
      <trkpt lat="45.17281" lon="4.53727">
        <ele>1045.09</ele>
        <time>2017-01-29T11:08:53Z</time>
      </trkpt>
      <trkpt lat="45.17288" lon="4.53733">
        <ele>1047.01</ele>
        <time>2017-01-29T11:09:07Z</time>
      </trkpt>
      <trkpt lat="45.17302" lon="4.53742">
        <ele>1048.94</ele>
        <time>2017-01-29T11:09:22Z</time>
      </trkpt>
      <trkpt lat="45.17311" lon="4.53753">
        <ele>1050.38</ele>
        <time>2017-01-29T11:09:36Z</time>
      </trkpt>
      <trkpt lat="45.17317" lon="4.53761">
        <ele>1052.3</ele>
        <time>2017-01-29T11:09:49Z</time>
      </trkpt>
      <trkpt lat="45.1732" lon="4.53768">
        <ele>1053.74</ele>
        <time>2017-01-29T11:10:06Z</time>
      </trkpt>
      <trkpt lat="45.17321" lon="4.53777">
        <ele>1055.67</ele>
        <time>2017-01-29T11:10:26Z</time>
      </trkpt>
      <trkpt lat="45.17319" lon="4.53783">
        <ele>1057.59</ele>
        <time>2017-01-29T11:10:39Z</time>
      </trkpt>
      <trkpt lat="45.17313" lon="4.5379">
        <ele>1059.99</ele>
        <time>2017-01-29T11:10:54Z</time>
      </trkpt>
      <trkpt lat="45.17305" lon="4.53801">
        <ele>1061.91</ele>
        <time>2017-01-29T11:11:08Z</time>
      </trkpt>
      <trkpt lat="45.17299" lon="4.53816">
        <ele>1063.84</ele>
        <time>2017-01-29T11:11:24Z</time>
      </trkpt>
      <trkpt lat="45.17295" lon="4.53828">
        <ele>1065.76</ele>
        <time>2017-01-29T11:11:37Z</time>
      </trkpt>
      <trkpt lat="45.17289" lon="4.53841">
        <ele>1067.2</ele>
        <time>2017-01-29T11:11:51Z</time>
      </trkpt>
      <trkpt lat="45.1728" lon="4.53858">
        <ele>1068.64</ele>
        <time>2017-01-29T11:12:06Z</time>
      </trkpt>
      <trkpt lat="45.17277" lon="4.53869">
        <ele>1069.6</ele>
        <time>2017-01-29T11:12:20Z</time>
      </trkpt>
      <trkpt lat="45.17274" lon="4.53882">
        <ele>1071.05</ele>
        <time>2017-01-29T11:12:31Z</time>
      </trkpt>
      <trkpt lat="45.17269" lon="4.53895">
        <ele>1072.49</ele>
        <time>2017-01-29T11:12:43Z</time>
      </trkpt>
      <trkpt lat="45.17263" lon="4.53909">
        <ele>1073.93</ele>
        <time>2017-01-29T11:12:58Z</time>
      </trkpt>
      <trkpt lat="45.17261" lon="4.53914">
        <ele>1073.93</ele>
        <time>2017-01-29T11:13:18Z</time>
      </trkpt>
      <trkpt lat="45.17258" lon="4.53924">
        <ele>1074.89</ele>
        <time>2017-01-29T11:13:35Z</time>
      </trkpt>
      <trkpt lat="45.17256" lon="4.53939">
        <ele>1076.33</ele>
        <time>2017-01-29T11:13:48Z</time>
      </trkpt>
      <trkpt lat="45.17251" lon="4.53951">
        <ele>1077.78</ele>
        <time>2017-01-29T11:14:00Z</time>
      </trkpt>
      <trkpt lat="45.17248" lon="4.53967">
        <ele>1077.78</ele>
        <time>2017-01-29T11:14:14Z</time>
      </trkpt>
      <trkpt lat="45.17242" lon="4.53983">
        <ele>1077.78</ele>
        <time>2017-01-29T11:14:26Z</time>
      </trkpt>
      <trkpt lat="45.17238" lon="4.54">
        <ele>1079.7</ele>
        <time>2017-01-29T11:14:40Z</time>
      </trkpt>
      <trkpt lat="45.17235" lon="4.54017">
        <ele>1082.58</ele>
        <time>2017-01-29T11:14:58Z</time>
      </trkpt>
      <trkpt lat="45.17232" lon="4.54029">
        <ele>1083.06</ele>
        <time>2017-01-29T11:15:12Z</time>
      </trkpt>
      <trkpt lat="45.17222" lon="4.5405">
        <ele>1083.06</ele>
        <time>2017-01-29T11:15:27Z</time>
      </trkpt>
      <trkpt lat="45.17219" lon="4.5406">
        <ele>1084.99</ele>
        <time>2017-01-29T11:15:41Z</time>
      </trkpt>
      <trkpt lat="45.17218" lon="4.54075">
        <ele>1087.39</ele>
        <time>2017-01-29T11:15:55Z</time>
      </trkpt>
      <trkpt lat="45.17211" lon="4.54101">
        <ele>1089.31</ele>
        <time>2017-01-29T11:16:09Z</time>
      </trkpt>
      <trkpt lat="45.17209" lon="4.54118">
        <ele>1091.71</ele>
        <time>2017-01-29T11:16:24Z</time>
      </trkpt>
      <trkpt lat="45.17208" lon="4.54135">
        <ele>1094.12</ele>
        <time>2017-01-29T11:16:39Z</time>
      </trkpt>
      <trkpt lat="45.17204" lon="4.54153">
        <ele>1096.52</ele>
        <time>2017-01-29T11:16:54Z</time>
      </trkpt>
      <trkpt lat="45.17203" lon="4.54173">
        <ele>1098.92</ele>
        <time>2017-01-29T11:17:11Z</time>
      </trkpt>
      <trkpt lat="45.17203" lon="4.54188">
        <ele>1100.85</ele>
        <time>2017-01-29T11:17:24Z</time>
      </trkpt>
      <trkpt lat="45.17203" lon="4.54201">
        <ele>1102.29</ele>
        <time>2017-01-29T11:17:36Z</time>
      </trkpt>
      <trkpt lat="45.172" lon="4.54221">
        <ele>1104.21</ele>
        <time>2017-01-29T11:17:49Z</time>
      </trkpt>
      <trkpt lat="45.17201" lon="4.5424">
        <ele>1106.13</ele>
        <time>2017-01-29T11:18:02Z</time>
      </trkpt>
      <trkpt lat="45.17202" lon="4.5426">
        <ele>1108.06</ele>
        <time>2017-01-29T11:18:16Z</time>
      </trkpt>
      <trkpt lat="45.17204" lon="4.54275">
        <ele>1109.5</ele>
        <time>2017-01-29T11:18:30Z</time>
      </trkpt>
      <trkpt lat="45.17206" lon="4.54272">
        <ele>1109.98</ele>
        <time>2017-01-29T11:18:52Z</time>
      </trkpt>
      <trkpt lat="45.17206" lon="4.5427">
        <ele>1109.98</ele>
        <time>2017-01-29T11:19:20Z</time>
      </trkpt>
      <trkpt lat="45.17216" lon="4.54265">
        <ele>1114.31</ele>
        <time>2017-01-29T11:22:37Z</time>
      </trkpt>
      <trkpt lat="45.17225" lon="4.54256">
        <ele>1117.67</ele>
        <time>2017-01-29T11:22:54Z</time>
      </trkpt>
      <trkpt lat="45.1723" lon="4.54259">
        <ele>1120.07</ele>
        <time>2017-01-29T11:23:06Z</time>
      </trkpt>
      <trkpt lat="45.17237" lon="4.5426">
        <ele>1122.48</ele>
        <time>2017-01-29T11:23:17Z</time>
      </trkpt>
      <trkpt lat="45.17246" lon="4.5426">
        <ele>1124.88</ele>
        <time>2017-01-29T11:23:31Z</time>
      </trkpt>
      <trkpt lat="45.17255" lon="4.54251">
        <ele>1127.76</ele>
        <time>2017-01-29T11:23:47Z</time>
      </trkpt>
      <trkpt lat="45.17266" lon="4.54241">
        <ele>1129.69</ele>
        <time>2017-01-29T11:24:02Z</time>
      </trkpt>
      <trkpt lat="45.1727" lon="4.54229">
        <ele>1132.09</ele>
        <time>2017-01-29T11:24:17Z</time>
      </trkpt>
      <trkpt lat="45.17276" lon="4.54219">
        <ele>1134.49</ele>
        <time>2017-01-29T11:24:32Z</time>
      </trkpt>
      <trkpt lat="45.17282" lon="4.54208">
        <ele>1135.94</ele>
        <time>2017-01-29T11:24:46Z</time>
      </trkpt>
      <trkpt lat="45.17289" lon="4.54195">
        <ele>1137.86</ele>
        <time>2017-01-29T11:24:59Z</time>
      </trkpt>
      <trkpt lat="45.17291" lon="4.5418">
        <ele>1139.3</ele>
        <time>2017-01-29T11:25:15Z</time>
      </trkpt>
      <trkpt lat="45.17294" lon="4.54162">
        <ele>1142.18</ele>
        <time>2017-01-29T11:25:31Z</time>
      </trkpt>
      <trkpt lat="45.17301" lon="4.54149">
        <ele>1143.14</ele>
        <time>2017-01-29T11:25:46Z</time>
      </trkpt>
      <trkpt lat="45.17309" lon="4.54137">
        <ele>1143.14</ele>
        <time>2017-01-29T11:26:03Z</time>
      </trkpt>
      <trkpt lat="45.17308" lon="4.54136">
        <ele>1145.07</ele>
        <time>2017-01-29T12:06:17Z</time>
      </trkpt>
      <trkpt lat="45.17312" lon="4.5413">
        <ele>1146.51</ele>
        <time>2017-01-29T12:16:15Z</time>
      </trkpt>
      <trkpt lat="45.17312" lon="4.54127">
        <ele>1146.51</ele>
        <time>2017-01-29T12:16:34Z</time>
      </trkpt>
      <trkpt lat="45.17306" lon="4.54134">
        <ele>1146.51</ele>
        <time>2017-01-29T12:16:52Z</time>
      </trkpt>
      <trkpt lat="45.17299" lon="4.54151">
        <ele>1146.51</ele>
        <time>2017-01-29T12:17:06Z</time>
      </trkpt>
      <trkpt lat="45.17298" lon="4.54152">
        <ele>1146.51</ele>
        <time>2017-01-29T12:17:07Z</time>
      </trkpt>
      <trkpt lat="45.17293" lon="4.54162">
        <ele>1145.07</ele>
        <time>2017-01-29T12:17:17Z</time>
      </trkpt>
      <trkpt lat="45.17293" lon="4.54166">
        <ele>1144.59</ele>
        <time>2017-01-29T12:17:20Z</time>
      </trkpt>
      <trkpt lat="45.17291" lon="4.54186">
        <ele>1141.7</ele>
        <time>2017-01-29T12:17:36Z</time>
      </trkpt>
      <trkpt lat="45.17282" lon="4.54204">
        <ele>1138.34</ele>
        <time>2017-01-29T12:17:50Z</time>
      </trkpt>
      <trkpt lat="45.17271" lon="4.5422">
        <ele>1134.49</ele>
        <time>2017-01-29T12:18:05Z</time>
      </trkpt>
      <trkpt lat="45.17267" lon="4.54234">
        <ele>1133.05</ele>
        <time>2017-01-29T12:18:12Z</time>
      </trkpt>
      <trkpt lat="45.17264" lon="4.54239">
        <ele>1132.09</ele>
        <time>2017-01-29T12:18:15Z</time>
      </trkpt>
      <trkpt lat="45.17255" lon="4.54248">
        <ele>1129.69</ele>
        <time>2017-01-29T12:18:29Z</time>
      </trkpt>
      <trkpt lat="45.17246" lon="4.54256">
        <ele>1127.28</ele>
        <time>2017-01-29T12:18:44Z</time>
      </trkpt>
      <trkpt lat="45.1724" lon="4.54256">
        <ele>1123.92</ele>
        <time>2017-01-29T12:18:58Z</time>
      </trkpt>
      <trkpt lat="45.1723" lon="4.54255">
        <ele>1120.55</ele>
        <time>2017-01-29T12:19:13Z</time>
      </trkpt>
      <trkpt lat="45.17217" lon="4.5426">
        <ele>1117.67</ele>
        <time>2017-01-29T12:19:28Z</time>
      </trkpt>
      <trkpt lat="45.17209" lon="4.54271">
        <ele>1114.79</ele>
        <time>2017-01-29T12:19:43Z</time>
      </trkpt>
      <trkpt lat="45.17206" lon="4.5427">
        <ele>1114.31</ele>
        <time>2017-01-29T12:20:01Z</time>
      </trkpt>
      <trkpt lat="45.17203" lon="4.5428">
        <ele>1112.86</ele>
        <time>2017-01-29T12:20:35Z</time>
      </trkpt>
      <trkpt lat="45.17209" lon="4.54294">
        <ele>1111.42</ele>
        <time>2017-01-29T12:20:48Z</time>
      </trkpt>
      <trkpt lat="45.17221" lon="4.54305">
        <ele>1110.46</ele>
        <time>2017-01-29T12:21:03Z</time>
      </trkpt>
      <trkpt lat="45.17231" lon="4.54316">
        <ele>1109.5</ele>
        <time>2017-01-29T12:21:16Z</time>
      </trkpt>
      <trkpt lat="45.17236" lon="4.54328">
        <ele>1107.1</ele>
        <time>2017-01-29T12:21:29Z</time>
      </trkpt>
      <trkpt lat="45.17241" lon="4.54344">
        <ele>1104.69</ele>
        <time>2017-01-29T12:21:43Z</time>
      </trkpt>
      <trkpt lat="45.17246" lon="4.54353">
        <ele>1102.29</ele>
        <time>2017-01-29T12:21:56Z</time>
      </trkpt>
      <trkpt lat="45.17252" lon="4.54356">
        <ele>1099.89</ele>
        <time>2017-01-29T12:22:08Z</time>
      </trkpt>
      <trkpt lat="45.17256" lon="4.54369">
        <ele>1097</ele>
        <time>2017-01-29T12:22:23Z</time>
      </trkpt>
      <trkpt lat="45.1726" lon="4.54384">
        <ele>1094.12</ele>
        <time>2017-01-29T12:22:38Z</time>
      </trkpt>
      <trkpt lat="45.17265" lon="4.54394">
        <ele>1091.23</ele>
        <time>2017-01-29T12:22:50Z</time>
      </trkpt>
      <trkpt lat="45.17269" lon="4.54409">
        <ele>1088.83</ele>
        <time>2017-01-29T12:23:03Z</time>
      </trkpt>
      <trkpt lat="45.17275" lon="4.54421">
        <ele>1086.43</ele>
        <time>2017-01-29T12:23:16Z</time>
      </trkpt>
      <trkpt lat="45.17285" lon="4.54429">
        <ele>1084.5</ele>
        <time>2017-01-29T12:23:29Z</time>
      </trkpt>
      <trkpt lat="45.17292" lon="4.54436">
        <ele>1082.1</ele>
        <time>2017-01-29T12:23:43Z</time>
      </trkpt>
      <trkpt lat="45.17297" lon="4.54447">
        <ele>1079.7</ele>
        <time>2017-01-29T12:23:57Z</time>
      </trkpt>
      <trkpt lat="45.17302" lon="4.54464">
        <ele>1077.78</ele>
        <time>2017-01-29T12:24:12Z</time>
      </trkpt>
      <trkpt lat="45.17307" lon="4.54488">
        <ele>1075.37</ele>
        <time>2017-01-29T12:24:26Z</time>
      </trkpt>
      <trkpt lat="45.17309" lon="4.54504">
        <ele>1072.49</ele>
        <time>2017-01-29T12:24:42Z</time>
      </trkpt>
      <trkpt lat="45.1731" lon="4.54519">
        <ele>1070.08</ele>
        <time>2017-01-29T12:24:57Z</time>
      </trkpt>
      <trkpt lat="45.17314" lon="4.54536">
        <ele>1068.16</ele>
        <time>2017-01-29T12:25:10Z</time>
      </trkpt>
      <trkpt lat="45.17314" lon="4.54539">
        <ele>1067.2</ele>
        <time>2017-01-29T12:25:12Z</time>
      </trkpt>
      <trkpt lat="45.1732" lon="4.54556">
        <ele>1066.24</ele>
        <time>2017-01-29T12:25:25Z</time>
      </trkpt>
      <trkpt lat="45.17321" lon="4.54565">
        <ele>1065.28</ele>
        <time>2017-01-29T12:25:30Z</time>
      </trkpt>
      <trkpt lat="45.17324" lon="4.54586">
        <ele>1063.84</ele>
        <time>2017-01-29T12:25:44Z</time>
      </trkpt>
      <trkpt lat="45.17331" lon="4.54599">
        <ele>1061.91</ele>
        <time>2017-01-29T12:25:57Z</time>
      </trkpt>
      <trkpt lat="45.17335" lon="4.54616">
        <ele>1060.47</ele>
        <time>2017-01-29T12:26:08Z</time>
      </trkpt>
      <trkpt lat="45.17342" lon="4.54635">
        <ele>1059.03</ele>
        <time>2017-01-29T12:26:21Z</time>
      </trkpt>
      <trkpt lat="45.17346" lon="4.54649">
        <ele>1058.07</ele>
        <time>2017-01-29T12:26:33Z</time>
      </trkpt>
      <trkpt lat="45.17351" lon="4.54668">
        <ele>1056.63</ele>
        <time>2017-01-29T12:26:46Z</time>
      </trkpt>
      <trkpt lat="45.17355" lon="4.54688">
        <ele>1054.22</ele>
        <time>2017-01-29T12:27:00Z</time>
      </trkpt>
      <trkpt lat="45.17356" lon="4.5471">
        <ele>1051.82</ele>
        <time>2017-01-29T12:27:13Z</time>
      </trkpt>
      <trkpt lat="45.17358" lon="4.54729">
        <ele>1049.42</ele>
        <time>2017-01-29T12:27:27Z</time>
      </trkpt>
      <trkpt lat="45.17362" lon="4.54749">
        <ele>1046.53</ele>
        <time>2017-01-29T12:27:41Z</time>
      </trkpt>
      <trkpt lat="45.1737" lon="4.54764">
        <ele>1044.13</ele>
        <time>2017-01-29T12:27:53Z</time>
      </trkpt>
      <trkpt lat="45.1738" lon="4.54778">
        <ele>1041.73</ele>
        <time>2017-01-29T12:28:06Z</time>
      </trkpt>
      <trkpt lat="45.17386" lon="4.54782">
        <ele>1040.28</ele>
        <time>2017-01-29T12:28:15Z</time>
      </trkpt>
      <trkpt lat="45.17399" lon="4.54796">
        <ele>1037.88</ele>
        <time>2017-01-29T12:28:29Z</time>
      </trkpt>
      <trkpt lat="45.17408" lon="4.54813">
        <ele>1035.48</ele>
        <time>2017-01-29T12:28:44Z</time>
      </trkpt>
      <trkpt lat="45.17408" lon="4.54814">
        <ele>1035.48</ele>
        <time>2017-01-29T12:28:45Z</time>
      </trkpt>
      <trkpt lat="45.17418" lon="4.5483">
        <ele>1033.55</ele>
        <time>2017-01-29T12:29:00Z</time>
      </trkpt>
      <trkpt lat="45.17419" lon="4.54833">
        <ele>1033.55</ele>
        <time>2017-01-29T12:31:26Z</time>
      </trkpt>
      <trkpt lat="45.1742" lon="4.54842">
        <ele>1033.55</ele>
        <time>2017-01-29T12:31:45Z</time>
      </trkpt>
      <trkpt lat="45.17419" lon="4.54848">
        <ele>1033.55</ele>
        <time>2017-01-29T12:32:15Z</time>
      </trkpt>
      <trkpt lat="45.17427" lon="4.54849">
        <ele>1033.55</ele>
        <time>2017-01-29T12:32:49Z</time>
      </trkpt>
      <trkpt lat="45.17436" lon="4.54856">
        <ele>1033.55</ele>
        <time>2017-01-29T12:33:05Z</time>
      </trkpt>
      <trkpt lat="45.17443" lon="4.54866">
        <ele>1033.07</ele>
        <time>2017-01-29T12:35:36Z</time>
      </trkpt>
      <trkpt lat="45.17444" lon="4.5488">
        <ele>1034.04</ele>
        <time>2017-01-29T12:35:50Z</time>
      </trkpt>
      <trkpt lat="45.17442" lon="4.54895">
        <ele>1035.96</ele>
        <time>2017-01-29T12:36:05Z</time>
      </trkpt>
      <trkpt lat="45.17442" lon="4.54914">
        <ele>1038.84</ele>
        <time>2017-01-29T12:36:22Z</time>
      </trkpt>
      <trkpt lat="45.17442" lon="4.54927">
        <ele>1041.73</ele>
        <time>2017-01-29T12:36:38Z</time>
      </trkpt>
      <trkpt lat="45.1744" lon="4.54943">
        <ele>1044.13</ele>
        <time>2017-01-29T12:36:54Z</time>
      </trkpt>
      <trkpt lat="45.17435" lon="4.54951">
        <ele>1045.57</ele>
        <time>2017-01-29T12:37:09Z</time>
      </trkpt>
      <trkpt lat="45.17435" lon="4.54961">
        <ele>1047.49</ele>
        <time>2017-01-29T12:37:23Z</time>
      </trkpt>
      <trkpt lat="45.17433" lon="4.5497">
        <ele>1047.97</ele>
        <time>2017-01-29T12:37:42Z</time>
      </trkpt>
      <trkpt lat="45.17431" lon="4.54977">
        <ele>1049.42</ele>
        <time>2017-01-29T12:38:01Z</time>
      </trkpt>
      <trkpt lat="45.17433" lon="4.54988">
        <ele>1051.82</ele>
        <time>2017-01-29T12:38:16Z</time>
      </trkpt>
      <trkpt lat="45.17434" lon="4.54996">
        <ele>1053.26</ele>
        <time>2017-01-29T12:38:29Z</time>
      </trkpt>
      <trkpt lat="45.17438" lon="4.55011">
        <ele>1055.67</ele>
        <time>2017-01-29T12:38:43Z</time>
      </trkpt>
      <trkpt lat="45.17443" lon="4.55026">
        <ele>1057.59</ele>
        <time>2017-01-29T12:38:56Z</time>
      </trkpt>
      <trkpt lat="45.17446" lon="4.55037">
        <ele>1059.99</ele>
        <time>2017-01-29T12:39:10Z</time>
      </trkpt>
      <trkpt lat="45.17445" lon="4.55044">
        <ele>1061.43</ele>
        <time>2017-01-29T12:39:23Z</time>
      </trkpt>
      <trkpt lat="45.1744" lon="4.55054">
        <ele>1063.36</ele>
        <time>2017-01-29T12:39:39Z</time>
      </trkpt>
      <trkpt lat="45.17439" lon="4.55066">
        <ele>1065.76</ele>
        <time>2017-01-29T12:39:53Z</time>
      </trkpt>
      <trkpt lat="45.17438" lon="4.55081">
        <ele>1069.12</ele>
        <time>2017-01-29T12:40:09Z</time>
      </trkpt>
      <trkpt lat="45.17437" lon="4.55098">
        <ele>1072.01</ele>
        <time>2017-01-29T12:40:26Z</time>
      </trkpt>
      <trkpt lat="45.17433" lon="4.55113">
        <ele>1074.89</ele>
        <time>2017-01-29T12:40:43Z</time>
      </trkpt>
      <trkpt lat="45.17436" lon="4.55123">
        <ele>1076.81</ele>
        <time>2017-01-29T12:40:57Z</time>
      </trkpt>
      <trkpt lat="45.17438" lon="4.55135">
        <ele>1078.74</ele>
        <time>2017-01-29T12:41:11Z</time>
      </trkpt>
      <trkpt lat="45.17441" lon="4.5515">
        <ele>1081.14</ele>
        <time>2017-01-29T12:41:27Z</time>
      </trkpt>
      <trkpt lat="45.17442" lon="4.55161">
        <ele>1082.1</ele>
        <time>2017-01-29T12:41:40Z</time>
      </trkpt>
      <trkpt lat="45.17433" lon="4.55166">
        <ele>1083.06</ele>
        <time>2017-01-29T12:41:54Z</time>
      </trkpt>
      <trkpt lat="45.17428" lon="4.55178">
        <ele>1084.5</ele>
        <time>2017-01-29T12:42:10Z</time>
      </trkpt>
      <trkpt lat="45.17426" lon="4.55181">
        <ele>1084.99</ele>
        <time>2017-01-29T12:42:25Z</time>
      </trkpt>
      <trkpt lat="45.17427" lon="4.55182">
        <ele>1085.47</ele>
        <time>2017-01-29T12:42:54Z</time>
      </trkpt>
      <trkpt lat="45.17425" lon="4.55183">
        <ele>1085.95</ele>
        <time>2017-01-29T12:43:19Z</time>
      </trkpt>
      <trkpt lat="45.17417" lon="4.55184">
        <ele>1085.95</ele>
        <time>2017-01-29T12:43:33Z</time>
      </trkpt>
      <trkpt lat="45.17405" lon="4.55197">
        <ele>1086.43</ele>
        <time>2017-01-29T12:43:49Z</time>
      </trkpt>
      <trkpt lat="45.17403" lon="4.55208">
        <ele>1086.43</ele>
        <time>2017-01-29T12:44:05Z</time>
      </trkpt>
      <trkpt lat="45.17404" lon="4.55211">
        <ele>1086.91</ele>
        <time>2017-01-29T12:44:35Z</time>
      </trkpt>
      <trkpt lat="45.17406" lon="4.55214">
        <ele>1087.39</ele>
        <time>2017-01-29T12:50:31Z</time>
      </trkpt>
      <trkpt lat="45.17405" lon="4.55218">
        <ele>1087.39</ele>
        <time>2017-01-29T12:50:53Z</time>
      </trkpt>
      <trkpt lat="45.17405" lon="4.55218">
        <ele>1087.39</ele>
        <time>2017-01-29T12:51:14Z</time>
      </trkpt>
      <trkpt lat="45.17411" lon="4.55218">
        <ele>1087.39</ele>
        <time>2017-01-29T12:51:29Z</time>
      </trkpt>
      <trkpt lat="45.17414" lon="4.55228">
        <ele>1084.5</ele>
        <time>2017-01-29T12:51:44Z</time>
      </trkpt>
      <trkpt lat="45.17423" lon="4.55235">
        <ele>1083.54</ele>
        <time>2017-01-29T12:51:57Z</time>
      </trkpt>
      <trkpt lat="45.17429" lon="4.55244">
        <ele>1080.66</ele>
        <time>2017-01-29T12:52:09Z</time>
      </trkpt>
      <trkpt lat="45.17435" lon="4.55253">
        <ele>1078.26</ele>
        <time>2017-01-29T12:52:24Z</time>
      </trkpt>
      <trkpt lat="45.17446" lon="4.55262">
        <ele>1075.37</ele>
        <time>2017-01-29T12:52:41Z</time>
      </trkpt>
      <trkpt lat="45.17451" lon="4.55272">
        <ele>1072.97</ele>
        <time>2017-01-29T12:52:55Z</time>
      </trkpt>
      <trkpt lat="45.17455" lon="4.55279">
        <ele>1069.6</ele>
        <time>2017-01-29T12:53:07Z</time>
      </trkpt>
      <trkpt lat="45.17457" lon="4.55285">
        <ele>1067.68</ele>
        <time>2017-01-29T12:53:21Z</time>
      </trkpt>
      <trkpt lat="45.17464" lon="4.55293">
        <ele>1065.28</ele>
        <time>2017-01-29T12:53:37Z</time>
      </trkpt>
      <trkpt lat="45.17465" lon="4.55302">
        <ele>1063.36</ele>
        <time>2017-01-29T12:53:52Z</time>
      </trkpt>
      <trkpt lat="45.17463" lon="4.55312">
        <ele>1060.47</ele>
        <time>2017-01-29T12:54:09Z</time>
      </trkpt>
      <trkpt lat="45.1747" lon="4.55326">
        <ele>1055.18</ele>
        <time>2017-01-29T12:55:33Z</time>
      </trkpt>
      <trkpt lat="45.17474" lon="4.55335">
        <ele>1052.3</ele>
        <time>2017-01-29T12:55:45Z</time>
      </trkpt>
      <trkpt lat="45.17481" lon="4.55341">
        <ele>1049.9</ele>
        <time>2017-01-29T12:56:00Z</time>
      </trkpt>
      <trkpt lat="45.1749" lon="4.55349">
        <ele>1047.01</ele>
        <time>2017-01-29T12:56:14Z</time>
      </trkpt>
      <trkpt lat="45.17497" lon="4.55359">
        <ele>1043.65</ele>
        <time>2017-01-29T12:56:28Z</time>
      </trkpt>
      <trkpt lat="45.17495" lon="4.55368">
        <ele>1043.17</ele>
        <time>2017-01-29T12:56:40Z</time>
      </trkpt>
      <trkpt lat="45.17494" lon="4.55383">
        <ele>1042.69</ele>
        <time>2017-01-29T12:56:56Z</time>
      </trkpt>
      <trkpt lat="45.17497" lon="4.55401">
        <ele>1040.76</ele>
        <time>2017-01-29T12:57:12Z</time>
      </trkpt>
      <trkpt lat="45.17506" lon="4.5541">
        <ele>1038.36</ele>
        <time>2017-01-29T12:57:28Z</time>
      </trkpt>
      <trkpt lat="45.17513" lon="4.55416">
        <ele>1035.48</ele>
        <time>2017-01-29T12:57:43Z</time>
      </trkpt>
      <trkpt lat="45.17521" lon="4.55421">
        <ele>1032.59</ele>
        <time>2017-01-29T12:57:57Z</time>
      </trkpt>
      <trkpt lat="45.17528" lon="4.55416">
        <ele>1030.67</ele>
        <time>2017-01-29T12:58:12Z</time>
      </trkpt>
      <trkpt lat="45.17531" lon="4.55419">
        <ele>1030.19</ele>
        <time>2017-01-29T12:58:28Z</time>
      </trkpt>
      <trkpt lat="45.17531" lon="4.55419">
        <ele>1029.71</ele>
        <time>2017-01-29T12:58:54Z</time>
      </trkpt>
      <trkpt lat="45.17531" lon="4.5542">
        <ele>1030.67</ele>
        <time>2017-01-29T12:59:10Z</time>
      </trkpt>
      <trkpt lat="45.17536" lon="4.55432">
        <ele>1028.27</ele>
        <time>2017-01-29T12:59:26Z</time>
      </trkpt>
      <trkpt lat="45.1754" lon="4.55449">
        <ele>1025.86</ele>
        <time>2017-01-29T12:59:39Z</time>
      </trkpt>
      <trkpt lat="45.17547" lon="4.55465">
        <ele>1023.46</ele>
        <time>2017-01-29T12:59:56Z</time>
      </trkpt>
      <trkpt lat="45.17553" lon="4.55469">
        <ele>1022.5</ele>
        <time>2017-01-29T13:00:03Z</time>
      </trkpt>
      <trkpt lat="45.17565" lon="4.5549">
        <ele>1019.13</ele>
        <time>2017-01-29T13:00:19Z</time>
      </trkpt>
      <trkpt lat="45.1757" lon="4.55497">
        <ele>1018.65</ele>
        <time>2017-01-29T13:00:33Z</time>
      </trkpt>
      <trkpt lat="45.17568" lon="4.55506">
        <ele>1018.65</ele>
        <time>2017-01-29T13:00:47Z</time>
      </trkpt>
      <trkpt lat="45.17565" lon="4.55524">
        <ele>1020.1</ele>
        <time>2017-01-29T13:01:04Z</time>
      </trkpt>
      <trkpt lat="45.17562" lon="4.55539">
        <ele>1021.54</ele>
        <time>2017-01-29T13:01:21Z</time>
      </trkpt>
      <trkpt lat="45.17557" lon="4.5555">
        <ele>1023.46</ele>
        <time>2017-01-29T13:01:36Z</time>
      </trkpt>
      <trkpt lat="45.17559" lon="4.55552">
        <ele>1022.02</ele>
        <time>2017-01-29T13:03:39Z</time>
      </trkpt>
      <trkpt lat="45.17559" lon="4.55552">
        <ele>1018.65</ele>
        <time>2017-01-29T13:03:53Z</time>
      </trkpt>
      <trkpt lat="45.17559" lon="4.55552">
        <ele>1023.46</ele>
        <time>2017-01-29T13:03:54Z</time>
      </trkpt>
      <trkpt lat="45.17561" lon="4.55553">
        <ele>1022.02</ele>
        <time>2017-01-29T13:04:15Z</time>
      </trkpt>
      <trkpt lat="45.17561" lon="4.55554">
        <ele>1022.02</ele>
        <time>2017-01-29T13:04:16Z</time>
      </trkpt>
      <trkpt lat="45.17561" lon="4.55567">
        <ele>1022.02</ele>
        <time>2017-01-29T13:04:30Z</time>
      </trkpt>
      <trkpt lat="45.1756" lon="4.55568">
        <ele>1023.46</ele>
        <time>2017-01-29T13:04:32Z</time>
      </trkpt>
      <trkpt lat="45.17556" lon="4.55581">
        <ele>1024.9</ele>
        <time>2017-01-29T13:04:46Z</time>
      </trkpt>
      <trkpt lat="45.17553" lon="4.55588">
        <ele>1024.9</ele>
        <time>2017-01-29T13:05:01Z</time>
      </trkpt>
      <trkpt lat="45.17551" lon="4.55605">
        <ele>1026.34</ele>
        <time>2017-01-29T13:05:17Z</time>
      </trkpt>
      <trkpt lat="45.17554" lon="4.55621">
        <ele>1027.31</ele>
        <time>2017-01-29T13:05:33Z</time>
      </trkpt>
      <trkpt lat="45.17556" lon="4.55638">
        <ele>1028.75</ele>
        <time>2017-01-29T13:05:48Z</time>
      </trkpt>
      <trkpt lat="45.17558" lon="4.55652">
        <ele>1030.19</ele>
        <time>2017-01-29T13:06:01Z</time>
      </trkpt>
      <trkpt lat="45.17562" lon="4.55672">
        <ele>1032.59</ele>
        <time>2017-01-29T13:06:16Z</time>
      </trkpt>
      <trkpt lat="45.1757" lon="4.55689">
        <ele>1034.52</ele>
        <time>2017-01-29T13:06:29Z</time>
      </trkpt>
      <trkpt lat="45.17584" lon="4.55697">
        <ele>1035.96</ele>
        <time>2017-01-29T13:06:44Z</time>
      </trkpt>
      <trkpt lat="45.17585" lon="4.55697">
        <ele>1035.96</ele>
        <time>2017-01-29T13:06:45Z</time>
      </trkpt>
      <trkpt lat="45.17598" lon="4.55704">
        <ele>1037.88</ele>
        <time>2017-01-29T13:06:59Z</time>
      </trkpt>
      <trkpt lat="45.17608" lon="4.55708">
        <ele>1039.8</ele>
        <time>2017-01-29T13:07:13Z</time>
      </trkpt>
      <trkpt lat="45.17619" lon="4.55723">
        <ele>1040.76</ele>
        <time>2017-01-29T13:07:27Z</time>
      </trkpt>
      <trkpt lat="45.1763" lon="4.55735">
        <ele>1040.76</ele>
        <time>2017-01-29T13:07:42Z</time>
      </trkpt>
      <trkpt lat="45.17642" lon="4.5575">
        <ele>1041.73</ele>
        <time>2017-01-29T13:07:56Z</time>
      </trkpt>
      <trkpt lat="45.17648" lon="4.55763">
        <ele>1041.73</ele>
        <time>2017-01-29T13:08:10Z</time>
      </trkpt>
      <trkpt lat="45.17659" lon="4.55778">
        <ele>1041.73</ele>
        <time>2017-01-29T13:08:25Z</time>
      </trkpt>
      <trkpt lat="45.17664" lon="4.55786">
        <ele>1040.28</ele>
        <time>2017-01-29T13:08:34Z</time>
      </trkpt>
      <trkpt lat="45.17668" lon="4.55792">
        <ele>1039.32</ele>
        <time>2017-01-29T13:08:40Z</time>
      </trkpt>
      <trkpt lat="45.17677" lon="4.5581">
        <ele>1036.92</ele>
        <time>2017-01-29T13:08:55Z</time>
      </trkpt>
      <trkpt lat="45.17687" lon="4.55828">
        <ele>1035.48</ele>
        <time>2017-01-29T13:09:10Z</time>
      </trkpt>
      <trkpt lat="45.17697" lon="4.55844">
        <ele>1033.55</ele>
        <time>2017-01-29T13:09:24Z</time>
      </trkpt>
      <trkpt lat="45.17708" lon="4.55864">
        <ele>1031.63</ele>
        <time>2017-01-29T13:09:43Z</time>
      </trkpt>
      <trkpt lat="45.17718" lon="4.55884">
        <ele>1030.19</ele>
        <time>2017-01-29T13:09:57Z</time>
      </trkpt>
      <trkpt lat="45.17723" lon="4.55898">
        <ele>1027.31</ele>
        <time>2017-01-29T13:10:10Z</time>
      </trkpt>
      <trkpt lat="45.17726" lon="4.5591">
        <ele>1026.34</ele>
        <time>2017-01-29T13:10:16Z</time>
      </trkpt>
      <trkpt lat="45.17735" lon="4.55938">
        <ele>1024.42</ele>
        <time>2017-01-29T13:10:31Z</time>
      </trkpt>
      <trkpt lat="45.17741" lon="4.55959">
        <ele>1023.46</ele>
        <time>2017-01-29T13:10:44Z</time>
      </trkpt>
      <trkpt lat="45.17743" lon="4.55984">
        <ele>1021.54</ele>
        <time>2017-01-29T13:10:59Z</time>
      </trkpt>
      <trkpt lat="45.17743" lon="4.56003">
        <ele>1020.58</ele>
        <time>2017-01-29T13:11:15Z</time>
      </trkpt>
      <trkpt lat="45.17746" lon="4.56006">
        <ele>1020.58</ele>
        <time>2017-01-29T13:11:33Z</time>
      </trkpt>
      <trkpt lat="45.17745" lon="4.5601">
        <ele>1022.02</ele>
        <time>2017-01-29T13:11:57Z</time>
      </trkpt>
      <trkpt lat="45.17745" lon="4.56014">
        <ele>1021.06</ele>
        <time>2017-01-29T13:14:32Z</time>
      </trkpt>
      <trkpt lat="45.17745" lon="4.5602">
        <ele>1021.06</ele>
        <time>2017-01-29T13:15:07Z</time>
      </trkpt>
      <trkpt lat="45.17749" lon="4.56014">
        <ele>1021.06</ele>
        <time>2017-01-29T13:15:33Z</time>
      </trkpt>
      <trkpt lat="45.17756" lon="4.56003">
        <ele>1024.42</ele>
        <time>2017-01-29T13:15:47Z</time>
      </trkpt>
      <trkpt lat="45.17765" lon="4.55998">
        <ele>1026.83</ele>
        <time>2017-01-29T13:16:02Z</time>
      </trkpt>
      <trkpt lat="45.1777" lon="4.55992">
        <ele>1030.19</ele>
        <time>2017-01-29T13:16:15Z</time>
      </trkpt>
      <trkpt lat="45.17779" lon="4.55993">
        <ele>1031.63</ele>
        <time>2017-01-29T13:16:27Z</time>
      </trkpt>
      <trkpt lat="45.17789" lon="4.55993">
        <ele>1034.04</ele>
        <time>2017-01-29T13:16:41Z</time>
      </trkpt>
      <trkpt lat="45.178" lon="4.56001">
        <ele>1035.96</ele>
        <time>2017-01-29T13:16:56Z</time>
      </trkpt>
      <trkpt lat="45.17807" lon="4.56009">
        <ele>1036.44</ele>
        <time>2017-01-29T13:17:09Z</time>
      </trkpt>
      <trkpt lat="45.17815" lon="4.5602">
        <ele>1036.92</ele>
        <time>2017-01-29T13:17:22Z</time>
      </trkpt>
      <trkpt lat="45.17826" lon="4.56027">
        <ele>1037.88</ele>
        <time>2017-01-29T13:17:37Z</time>
      </trkpt>
      <trkpt lat="45.17843" lon="4.56044">
        <ele>1037.88</ele>
        <time>2017-01-29T13:17:53Z</time>
      </trkpt>
      <trkpt lat="45.17848" lon="4.56049">
        <ele>1036.44</ele>
        <time>2017-01-29T13:18:02Z</time>
      </trkpt>
      <trkpt lat="45.17852" lon="4.56068">
        <ele>1035.48</ele>
        <time>2017-01-29T13:18:21Z</time>
      </trkpt>
      <trkpt lat="45.17858" lon="4.56085">
        <ele>1033.55</ele>
        <time>2017-01-29T13:18:36Z</time>
      </trkpt>
      <trkpt lat="45.17863" lon="4.56105">
        <ele>1031.63</ele>
        <time>2017-01-29T13:18:51Z</time>
      </trkpt>
      <trkpt lat="45.17868" lon="4.5612">
        <ele>1029.71</ele>
        <time>2017-01-29T13:19:08Z</time>
      </trkpt>
      <trkpt lat="45.17873" lon="4.56141">
        <ele>1027.79</ele>
        <time>2017-01-29T13:19:23Z</time>
      </trkpt>
      <trkpt lat="45.17877" lon="4.56157">
        <ele>1026.34</ele>
        <time>2017-01-29T13:19:38Z</time>
      </trkpt>
      <trkpt lat="45.17883" lon="4.56176">
        <ele>1024.42</ele>
        <time>2017-01-29T13:19:54Z</time>
      </trkpt>
      <trkpt lat="45.17887" lon="4.56194">
        <ele>1023.46</ele>
        <time>2017-01-29T13:20:07Z</time>
      </trkpt>
      <trkpt lat="45.17892" lon="4.56207">
        <ele>1022.5</ele>
        <time>2017-01-29T13:20:19Z</time>
      </trkpt>
      <trkpt lat="45.17901" lon="4.56228">
        <ele>1021.54</ele>
        <time>2017-01-29T13:20:34Z</time>
      </trkpt>
      <trkpt lat="45.17902" lon="4.56232">
        <ele>1021.54</ele>
        <time>2017-01-29T13:20:37Z</time>
      </trkpt>
      <trkpt lat="45.1791" lon="4.56248">
        <ele>1019.62</ele>
        <time>2017-01-29T13:20:51Z</time>
      </trkpt>
      <trkpt lat="45.17915" lon="4.56262">
        <ele>1018.17</ele>
        <time>2017-01-29T13:21:04Z</time>
      </trkpt>
      <trkpt lat="45.17919" lon="4.56275">
        <ele>1017.21</ele>
        <time>2017-01-29T13:21:19Z</time>
      </trkpt>
      <trkpt lat="45.17926" lon="4.56288">
        <ele>1015.77</ele>
        <time>2017-01-29T13:21:34Z</time>
      </trkpt>
      <trkpt lat="45.17937" lon="4.56307">
        <ele>1012.89</ele>
        <time>2017-01-29T13:21:53Z</time>
      </trkpt>
      <trkpt lat="45.1794" lon="4.56325">
        <ele>1010.96</ele>
        <time>2017-01-29T13:22:08Z</time>
      </trkpt>
      <trkpt lat="45.17943" lon="4.56343">
        <ele>1008.08</ele>
        <time>2017-01-29T13:22:21Z</time>
      </trkpt>
      <trkpt lat="45.17949" lon="4.56359">
        <ele>1005.68</ele>
        <time>2017-01-29T13:22:35Z</time>
      </trkpt>
      <trkpt lat="45.17959" lon="4.56377">
        <ele>1002.31</ele>
        <time>2017-01-29T13:22:51Z</time>
      </trkpt>
      <trkpt lat="45.17967" lon="4.56387">
        <ele>1000.39</ele>
        <time>2017-01-29T13:23:03Z</time>
      </trkpt>
      <trkpt lat="45.17978" lon="4.56404">
        <ele>997.99</ele>
        <time>2017-01-29T13:23:18Z</time>
      </trkpt>
      <trkpt lat="45.1799" lon="4.56423">
        <ele>995.1</ele>
        <time>2017-01-29T13:23:34Z</time>
      </trkpt>
      <trkpt lat="45.17998" lon="4.5644">
        <ele>991.74</ele>
        <time>2017-01-29T13:23:49Z</time>
      </trkpt>
      <trkpt lat="45.18008" lon="4.56454">
        <ele>988.85</ele>
        <time>2017-01-29T13:24:04Z</time>
      </trkpt>
      <trkpt lat="45.18015" lon="4.56466">
        <ele>986.45</ele>
        <time>2017-01-29T13:24:15Z</time>
      </trkpt>
      <trkpt lat="45.18018" lon="4.56474">
        <ele>985.01</ele>
        <time>2017-01-29T13:24:21Z</time>
      </trkpt>
      <trkpt lat="45.18024" lon="4.56488">
        <ele>982.12</ele>
        <time>2017-01-29T13:24:33Z</time>
      </trkpt>
      <trkpt lat="45.18027" lon="4.56503">
        <ele>978.76</ele>
        <time>2017-01-29T13:24:46Z</time>
      </trkpt>
      <trkpt lat="45.18024" lon="4.56523">
        <ele>974.91</ele>
        <time>2017-01-29T13:25:01Z</time>
      </trkpt>
      <trkpt lat="45.18024" lon="4.56539">
        <ele>972.99</ele>
        <time>2017-01-29T13:25:16Z</time>
      </trkpt>
      <trkpt lat="45.18025" lon="4.56547">
        <ele>971.55</ele>
        <time>2017-01-29T13:25:33Z</time>
      </trkpt>
      <trkpt lat="45.18028" lon="4.56544">
        <ele>971.07</ele>
        <time>2017-01-29T13:25:57Z</time>
      </trkpt>
      <trkpt lat="45.18029" lon="4.56547">
        <ele>971.07</ele>
        <time>2017-01-29T13:26:23Z</time>
      </trkpt>
      <trkpt lat="45.18028" lon="4.56551">
        <ele>971.07</ele>
        <time>2017-01-29T13:26:52Z</time>
      </trkpt>
      <trkpt lat="45.18027" lon="4.56552">
        <ele>972.03</ele>
        <time>2017-01-29T13:27:09Z</time>
      </trkpt>
      <trkpt lat="45.18027" lon="4.56557">
        <ele>972.03</ele>
        <time>2017-01-29T13:27:25Z</time>
      </trkpt>
      <trkpt lat="45.18029" lon="4.5656">
        <ele>970.59</ele>
        <time>2017-01-29T13:27:30Z</time>
      </trkpt>
      <trkpt lat="45.18037" lon="4.56573">
        <ele>968.18</ele>
        <time>2017-01-29T13:27:44Z</time>
      </trkpt>
      <trkpt lat="45.18045" lon="4.56584">
        <ele>966.26</ele>
        <time>2017-01-29T13:28:00Z</time>
      </trkpt>
      <trkpt lat="45.18053" lon="4.56597">
        <ele>963.86</ele>
        <time>2017-01-29T13:28:14Z</time>
      </trkpt>
      <trkpt lat="45.18063" lon="4.56608">
        <ele>961.46</ele>
        <time>2017-01-29T13:28:29Z</time>
      </trkpt>
      <trkpt lat="45.18072" lon="4.56621">
        <ele>958.09</ele>
        <time>2017-01-29T13:28:44Z</time>
      </trkpt>
      <trkpt lat="45.18085" lon="4.56634">
        <ele>955.69</ele>
        <time>2017-01-29T13:28:58Z</time>
      </trkpt>
      <trkpt lat="45.18091" lon="4.56643">
        <ele>952.8</ele>
        <time>2017-01-29T13:29:11Z</time>
      </trkpt>
      <trkpt lat="45.18095" lon="4.56659">
        <ele>950.4</ele>
        <time>2017-01-29T13:29:25Z</time>
      </trkpt>
      <trkpt lat="45.181" lon="4.56677">
        <ele>948</ele>
        <time>2017-01-29T13:29:39Z</time>
      </trkpt>
      <trkpt lat="45.18104" lon="4.56683">
        <ele>947.04</ele>
        <time>2017-01-29T13:29:53Z</time>
      </trkpt>
      <trkpt lat="45.18105" lon="4.56688">
        <ele>946.56</ele>
        <time>2017-01-29T13:30:05Z</time>
      </trkpt>
      <trkpt lat="45.18117" lon="4.56696">
        <ele>943.67</ele>
        <time>2017-01-29T13:30:19Z</time>
      </trkpt>
      <trkpt lat="45.18126" lon="4.56704">
        <ele>940.31</ele>
        <time>2017-01-29T13:30:33Z</time>
      </trkpt>
      <trkpt lat="45.1814" lon="4.56715">
        <ele>937.9</ele>
        <time>2017-01-29T13:30:47Z</time>
      </trkpt>
      <trkpt lat="45.18152" lon="4.56722">
        <ele>936.46</ele>
        <time>2017-01-29T13:31:00Z</time>
      </trkpt>
      <trkpt lat="45.18164" lon="4.56733">
        <ele>935.5</ele>
        <time>2017-01-29T13:31:15Z</time>
      </trkpt>
      <trkpt lat="45.18166" lon="4.56735">
        <ele>935.02</ele>
        <time>2017-01-29T13:31:17Z</time>
      </trkpt>
      <trkpt lat="45.18178" lon="4.56741">
        <ele>934.54</ele>
        <time>2017-01-29T13:31:32Z</time>
      </trkpt>
      <trkpt lat="45.18171" lon="4.56734">
        <ele>935.02</ele>
        <time>2017-01-29T13:36:56Z</time>
      </trkpt>
      <trkpt lat="45.18163" lon="4.56737">
        <ele>935.5</ele>
        <time>2017-01-29T13:37:06Z</time>
      </trkpt>
      <trkpt lat="45.18151" lon="4.56741">
        <ele>935.5</ele>
        <time>2017-01-29T13:37:20Z</time>
      </trkpt>
      <trkpt lat="45.18137" lon="4.56746">
        <ele>935.5</ele>
        <time>2017-01-29T13:37:35Z</time>
      </trkpt>
      <trkpt lat="45.18123" lon="4.56751">
        <ele>935.5</ele>
        <time>2017-01-29T13:37:48Z</time>
      </trkpt>
      <trkpt lat="45.1811" lon="4.56757">
        <ele>935.5</ele>
        <time>2017-01-29T13:38:00Z</time>
      </trkpt>
      <trkpt lat="45.18101" lon="4.56756">
        <ele>936.46</ele>
        <time>2017-01-29T13:38:09Z</time>
      </trkpt>
      <trkpt lat="45.1809" lon="4.56752">
        <ele>936.46</ele>
        <time>2017-01-29T13:38:17Z</time>
      </trkpt>
      <trkpt lat="45.18084" lon="4.56748">
        <ele>936.94</ele>
        <time>2017-01-29T13:38:23Z</time>
      </trkpt>
      <trkpt lat="45.18075" lon="4.56744">
        <ele>937.42</ele>
        <time>2017-01-29T13:38:30Z</time>
      </trkpt>
      <trkpt lat="45.18072" lon="4.56741">
        <ele>937.42</ele>
        <time>2017-01-29T13:38:33Z</time>
      </trkpt>
      <trkpt lat="45.18064" lon="4.56735">
        <ele>937.9</ele>
        <time>2017-01-29T13:38:40Z</time>
      </trkpt>
      <trkpt lat="45.18062" lon="4.56733">
        <ele>937.9</ele>
        <time>2017-01-29T13:38:42Z</time>
      </trkpt>
      <trkpt lat="45.18047" lon="4.56721">
        <ele>937.9</ele>
        <time>2017-01-29T13:38:56Z</time>
      </trkpt>
      <trkpt lat="45.18037" lon="4.56708">
        <ele>937.9</ele>
        <time>2017-01-29T13:39:08Z</time>
      </trkpt>
      <trkpt lat="45.18025" lon="4.56693">
        <ele>937.9</ele>
        <time>2017-01-29T13:39:21Z</time>
      </trkpt>
      <trkpt lat="45.18014" lon="4.56674">
        <ele>937.9</ele>
        <time>2017-01-29T13:39:35Z</time>
      </trkpt>
      <trkpt lat="45.18001" lon="4.56655">
        <ele>938.86</ele>
        <time>2017-01-29T13:39:48Z</time>
      </trkpt>
      <trkpt lat="45.18" lon="4.56654">
        <ele>938.86</ele>
        <time>2017-01-29T13:39:49Z</time>
      </trkpt>
      <trkpt lat="45.17993" lon="4.5665">
        <ele>938.86</ele>
        <time>2017-01-29T13:39:56Z</time>
      </trkpt>
      <trkpt lat="45.1799" lon="4.56648">
        <ele>939.83</ele>
        <time>2017-01-29T13:39:59Z</time>
      </trkpt>
      <trkpt lat="45.17981" lon="4.56643">
        <ele>939.83</ele>
        <time>2017-01-29T13:40:07Z</time>
      </trkpt>
      <trkpt lat="45.17967" lon="4.56634">
        <ele>940.79</ele>
        <time>2017-01-29T13:40:19Z</time>
      </trkpt>
      <trkpt lat="45.17965" lon="4.56633">
        <ele>940.79</ele>
        <time>2017-01-29T13:40:22Z</time>
      </trkpt>
      <trkpt lat="45.17961" lon="4.5663">
        <ele>940.79</ele>
        <time>2017-01-29T13:40:26Z</time>
      </trkpt>
      <trkpt lat="45.17949" lon="4.56622">
        <ele>942.71</ele>
        <time>2017-01-29T13:40:38Z</time>
      </trkpt>
      <trkpt lat="45.17933" lon="4.56612">
        <ele>943.67</ele>
        <time>2017-01-29T13:40:53Z</time>
      </trkpt>
      <trkpt lat="45.17927" lon="4.56609">
        <ele>943.67</ele>
        <time>2017-01-29T13:40:58Z</time>
      </trkpt>
      <trkpt lat="45.1792" lon="4.56603">
        <ele>945.11</ele>
        <time>2017-01-29T13:41:05Z</time>
      </trkpt>
      <trkpt lat="45.17918" lon="4.56601">
        <ele>945.11</ele>
        <time>2017-01-29T13:41:07Z</time>
      </trkpt>
      <trkpt lat="45.17913" lon="4.56598">
        <ele>945.59</ele>
        <time>2017-01-29T13:41:11Z</time>
      </trkpt>
      <trkpt lat="45.17907" lon="4.56593">
        <ele>945.59</ele>
        <time>2017-01-29T13:41:16Z</time>
      </trkpt>
      <trkpt lat="45.17902" lon="4.56592">
        <ele>946.07</ele>
        <time>2017-01-29T13:41:20Z</time>
      </trkpt>
      <trkpt lat="45.17889" lon="4.56583">
        <ele>948</ele>
        <time>2017-01-29T13:41:31Z</time>
      </trkpt>
      <trkpt lat="45.17877" lon="4.56571">
        <ele>949.44</ele>
        <time>2017-01-29T13:41:44Z</time>
      </trkpt>
      <trkpt lat="45.17875" lon="4.56569">
        <ele>949.92</ele>
        <time>2017-01-29T13:41:47Z</time>
      </trkpt>
      <trkpt lat="45.17864" lon="4.56559">
        <ele>950.88</ele>
        <time>2017-01-29T13:41:59Z</time>
      </trkpt>
      <trkpt lat="45.17863" lon="4.56558">
        <ele>951.36</ele>
        <time>2017-01-29T13:42:00Z</time>
      </trkpt>
      <trkpt lat="45.17861" lon="4.56557">
        <ele>951.36</ele>
        <time>2017-01-29T13:42:02Z</time>
      </trkpt>
      <trkpt lat="45.17854" lon="4.5655">
        <ele>951.84</ele>
        <time>2017-01-29T13:42:10Z</time>
      </trkpt>
      <trkpt lat="45.17844" lon="4.56541">
        <ele>952.8</ele>
        <time>2017-01-29T13:42:22Z</time>
      </trkpt>
      <trkpt lat="45.17835" lon="4.56533">
        <ele>954.25</ele>
        <time>2017-01-29T13:42:32Z</time>
      </trkpt>
      <trkpt lat="45.17821" lon="4.5652">
        <ele>955.21</ele>
        <time>2017-01-29T13:42:45Z</time>
      </trkpt>
      <trkpt lat="45.1781" lon="4.56512">
        <ele>956.17</ele>
        <time>2017-01-29T13:42:56Z</time>
      </trkpt>
      <trkpt lat="45.17796" lon="4.56502">
        <ele>957.13</ele>
        <time>2017-01-29T13:43:08Z</time>
      </trkpt>
      <trkpt lat="45.17793" lon="4.565">
        <ele>957.61</ele>
        <time>2017-01-29T13:43:12Z</time>
      </trkpt>
      <trkpt lat="45.17782" lon="4.56495">
        <ele>959.05</ele>
        <time>2017-01-29T13:43:24Z</time>
      </trkpt>
      <trkpt lat="45.17769" lon="4.56491">
        <ele>960.01</ele>
        <time>2017-01-29T13:43:37Z</time>
      </trkpt>
      <trkpt lat="45.17754" lon="4.56491">
        <ele>961.46</ele>
        <time>2017-01-29T13:43:49Z</time>
      </trkpt>
      <trkpt lat="45.17749" lon="4.56495">
        <ele>961.94</ele>
        <time>2017-01-29T13:43:55Z</time>
      </trkpt>
      <trkpt lat="45.17744" lon="4.56498">
        <ele>961.46</ele>
        <time>2017-01-29T13:44:00Z</time>
      </trkpt>
      <trkpt lat="45.1773" lon="4.56506">
        <ele>962.42</ele>
        <time>2017-01-29T13:44:13Z</time>
      </trkpt>
      <trkpt lat="45.17727" lon="4.56506">
        <ele>962.9</ele>
        <time>2017-01-29T13:44:15Z</time>
      </trkpt>
      <trkpt lat="45.17719" lon="4.56511">
        <ele>963.38</ele>
        <time>2017-01-29T13:44:22Z</time>
      </trkpt>
      <trkpt lat="45.17713" lon="4.56516">
        <ele>963.86</ele>
        <time>2017-01-29T13:44:27Z</time>
      </trkpt>
      <trkpt lat="45.17707" lon="4.56521">
        <ele>964.34</ele>
        <time>2017-01-29T13:44:32Z</time>
      </trkpt>
      <trkpt lat="45.17702" lon="4.56527">
        <ele>964.82</ele>
        <time>2017-01-29T13:44:37Z</time>
      </trkpt>
      <trkpt lat="45.17699" lon="4.5653">
        <ele>964.82</ele>
        <time>2017-01-29T13:44:39Z</time>
      </trkpt>
      <trkpt lat="45.17695" lon="4.56535">
        <ele>964.82</ele>
        <time>2017-01-29T13:44:44Z</time>
      </trkpt>
      <trkpt lat="45.17678" lon="4.56554">
        <ele>966.74</ele>
        <time>2017-01-29T13:45:01Z</time>
      </trkpt>
      <trkpt lat="45.17672" lon="4.56565">
        <ele>967.22</ele>
        <time>2017-01-29T13:45:10Z</time>
      </trkpt>
      <trkpt lat="45.17669" lon="4.5657">
        <ele>967.7</ele>
        <time>2017-01-29T13:45:14Z</time>
      </trkpt>
      <trkpt lat="45.17667" lon="4.56572">
        <ele>967.7</ele>
        <time>2017-01-29T13:45:16Z</time>
      </trkpt>
      <trkpt lat="45.17657" lon="4.56585">
        <ele>968.18</ele>
        <time>2017-01-29T13:45:26Z</time>
      </trkpt>
      <trkpt lat="45.17647" lon="4.566">
        <ele>969.63</ele>
        <time>2017-01-29T13:45:38Z</time>
      </trkpt>
      <trkpt lat="45.17633" lon="4.56611">
        <ele>970.59</ele>
        <time>2017-01-29T13:45:53Z</time>
      </trkpt>
      <trkpt lat="45.17621" lon="4.56627">
        <ele>971.55</ele>
        <time>2017-01-29T13:46:07Z</time>
      </trkpt>
      <trkpt lat="45.17616" lon="4.56631">
        <ele>972.03</ele>
        <time>2017-01-29T13:46:12Z</time>
      </trkpt>
      <trkpt lat="45.17602" lon="4.56642">
        <ele>973.47</ele>
        <time>2017-01-29T13:46:26Z</time>
      </trkpt>
      <trkpt lat="45.17596" lon="4.56646">
        <ele>973.95</ele>
        <time>2017-01-29T13:46:31Z</time>
      </trkpt>
      <trkpt lat="45.17583" lon="4.56658">
        <ele>974.91</ele>
        <time>2017-01-29T13:46:46Z</time>
      </trkpt>
      <trkpt lat="45.17582" lon="4.56662">
        <ele>975.88</ele>
        <time>2017-01-29T13:50:15Z</time>
      </trkpt>
      <trkpt lat="45.1758" lon="4.56668">
        <ele>976.36</ele>
        <time>2017-01-29T13:50:30Z</time>
      </trkpt>
      <trkpt lat="45.17575" lon="4.56677">
        <ele>976.36</ele>
        <time>2017-01-29T13:50:38Z</time>
      </trkpt>
      <trkpt lat="45.17573" lon="4.56682">
        <ele>974.91</ele>
        <time>2017-01-29T13:50:43Z</time>
      </trkpt>
      <trkpt lat="45.1757" lon="4.56693">
        <ele>974.91</ele>
        <time>2017-01-29T13:50:56Z</time>
      </trkpt>
      <trkpt lat="45.17565" lon="4.56705">
        <ele>973.95</ele>
        <time>2017-01-29T13:51:09Z</time>
      </trkpt>
      <trkpt lat="45.17558" lon="4.56724">
        <ele>973.47</ele>
        <time>2017-01-29T13:51:25Z</time>
      </trkpt>
      <trkpt lat="45.17549" lon="4.56739">
        <ele>972.99</ele>
        <time>2017-01-29T13:51:39Z</time>
      </trkpt>
      <trkpt lat="45.17541" lon="4.56757">
        <ele>972.99</ele>
        <time>2017-01-29T13:51:54Z</time>
      </trkpt>
      <trkpt lat="45.17536" lon="4.56766">
        <ele>972.51</ele>
        <time>2017-01-29T13:52:02Z</time>
      </trkpt>
      <trkpt lat="45.17524" lon="4.56776">
        <ele>972.51</ele>
        <time>2017-01-29T13:52:16Z</time>
      </trkpt>
      <trkpt lat="45.17515" lon="4.56789">
        <ele>972.99</ele>
        <time>2017-01-29T13:52:32Z</time>
      </trkpt>
      <trkpt lat="45.17506" lon="4.56799">
        <ele>973.95</ele>
        <time>2017-01-29T13:52:46Z</time>
      </trkpt>
      <trkpt lat="45.175" lon="4.56809">
        <ele>974.43</ele>
        <time>2017-01-29T13:52:58Z</time>
      </trkpt>
      <trkpt lat="45.1749" lon="4.56823">
        <ele>975.39</ele>
        <time>2017-01-29T13:53:13Z</time>
      </trkpt>
      <trkpt lat="45.17483" lon="4.56839">
        <ele>975.88</ele>
        <time>2017-01-29T13:53:28Z</time>
      </trkpt>
      <trkpt lat="45.17473" lon="4.56856">
        <ele>975.88</ele>
        <time>2017-01-29T13:53:46Z</time>
      </trkpt>
      <trkpt lat="45.17467" lon="4.56871">
        <ele>975.88</ele>
        <time>2017-01-29T13:53:59Z</time>
      </trkpt>
      <trkpt lat="45.17461" lon="4.56893">
        <ele>975.88</ele>
        <time>2017-01-29T13:54:14Z</time>
      </trkpt>
      <trkpt lat="45.17452" lon="4.56904">
        <ele>975.88</ele>
        <time>2017-01-29T13:54:29Z</time>
      </trkpt>
      <trkpt lat="45.17441" lon="4.56907">
        <ele>977.32</ele>
        <time>2017-01-29T13:54:42Z</time>
      </trkpt>
      <trkpt lat="45.1743" lon="4.56903">
        <ele>979.24</ele>
        <time>2017-01-29T13:54:58Z</time>
      </trkpt>
      <trkpt lat="45.17421" lon="4.56898">
        <ele>981.16</ele>
        <time>2017-01-29T13:55:12Z</time>
      </trkpt>
      <trkpt lat="45.17412" lon="4.56893">
        <ele>982.6</ele>
        <time>2017-01-29T13:55:24Z</time>
      </trkpt>
      <trkpt lat="45.17402" lon="4.56887">
        <ele>984.53</ele>
        <time>2017-01-29T13:55:40Z</time>
      </trkpt>
      <trkpt lat="45.17399" lon="4.56886">
        <ele>985.01</ele>
        <time>2017-01-29T13:55:56Z</time>
      </trkpt>
      <trkpt lat="45.17396" lon="4.56883">
        <ele>985.01</ele>
        <time>2017-01-29T13:56:11Z</time>
      </trkpt>
      <trkpt lat="45.17392" lon="4.56886">
        <ele>985.49</ele>
        <time>2017-01-29T13:56:17Z</time>
      </trkpt>
      <trkpt lat="45.17377" lon="4.56898">
        <ele>984.05</ele>
        <time>2017-01-29T13:56:36Z</time>
      </trkpt>
      <trkpt lat="45.17375" lon="4.56899">
        <ele>984.05</ele>
        <time>2017-01-29T13:56:38Z</time>
      </trkpt>
      <trkpt lat="45.17359" lon="4.56909">
        <ele>983.09</ele>
        <time>2017-01-29T13:56:54Z</time>
      </trkpt>
      <trkpt lat="45.17343" lon="4.56918">
        <ele>981.16</ele>
        <time>2017-01-29T13:57:09Z</time>
      </trkpt>
      <trkpt lat="45.17343" lon="4.56919">
        <ele>981.16</ele>
        <time>2017-01-29T13:57:10Z</time>
      </trkpt>
      <trkpt lat="45.17337" lon="4.56925">
        <ele>981.16</ele>
        <time>2017-01-29T13:57:17Z</time>
      </trkpt>
      <trkpt lat="45.1732" lon="4.56946">
        <ele>980.68</ele>
        <time>2017-01-29T13:57:33Z</time>
      </trkpt>
      <trkpt lat="45.17311" lon="4.56959">
        <ele>980.68</ele>
        <time>2017-01-29T13:57:46Z</time>
      </trkpt>
      <trkpt lat="45.17309" lon="4.56961">
        <ele>982.12</ele>
        <time>2017-01-29T13:57:48Z</time>
      </trkpt>
      <trkpt lat="45.17298" lon="4.56976">
        <ele>983.09</ele>
        <time>2017-01-29T13:58:01Z</time>
      </trkpt>
      <trkpt lat="45.17289" lon="4.56994">
        <ele>985.01</ele>
        <time>2017-01-29T13:58:15Z</time>
      </trkpt>
      <trkpt lat="45.17281" lon="4.5701">
        <ele>985.49</ele>
        <time>2017-01-29T13:58:27Z</time>
      </trkpt>
      <trkpt lat="45.17275" lon="4.57022">
        <ele>984.05</ele>
        <time>2017-01-29T13:58:36Z</time>
      </trkpt>
      <trkpt lat="45.17264" lon="4.57042">
        <ele>983.57</ele>
        <time>2017-01-29T13:58:51Z</time>
      </trkpt>
      <trkpt lat="45.17256" lon="4.57058">
        <ele>982.6</ele>
        <time>2017-01-29T13:59:04Z</time>
      </trkpt>
      <trkpt lat="45.17247" lon="4.57073">
        <ele>982.12</ele>
        <time>2017-01-29T13:59:16Z</time>
      </trkpt>
      <trkpt lat="45.17242" lon="4.57086">
        <ele>982.12</ele>
        <time>2017-01-29T13:59:25Z</time>
      </trkpt>
      <trkpt lat="45.17233" lon="4.57109">
        <ele>981.64</ele>
        <time>2017-01-29T13:59:40Z</time>
      </trkpt>
      <trkpt lat="45.17232" lon="4.5711">
        <ele>981.64</ele>
        <time>2017-01-29T13:59:41Z</time>
      </trkpt>
      <trkpt lat="45.17226" lon="4.57125">
        <ele>981.64</ele>
        <time>2017-01-29T13:59:51Z</time>
      </trkpt>
      <trkpt lat="45.17224" lon="4.5713">
        <ele>981.16</ele>
        <time>2017-01-29T13:59:55Z</time>
      </trkpt>
      <trkpt lat="45.17214" lon="4.57153">
        <ele>979.72</ele>
        <time>2017-01-29T14:00:11Z</time>
      </trkpt>
      <trkpt lat="45.17212" lon="4.57158">
        <ele>979.24</ele>
        <time>2017-01-29T14:00:15Z</time>
      </trkpt>
      <trkpt lat="45.17202" lon="4.57175">
        <ele>978.76</ele>
        <time>2017-01-29T14:00:28Z</time>
      </trkpt>
      <trkpt lat="45.17189" lon="4.57194">
        <ele>978.28</ele>
        <time>2017-01-29T14:00:41Z</time>
      </trkpt>
      <trkpt lat="45.17187" lon="4.57197">
        <ele>978.28</ele>
        <time>2017-01-29T14:00:44Z</time>
      </trkpt>
      <trkpt lat="45.17178" lon="4.57211">
        <ele>976.84</ele>
        <time>2017-01-29T14:00:56Z</time>
      </trkpt>
      <trkpt lat="45.17167" lon="4.57225">
        <ele>975.88</ele>
        <time>2017-01-29T14:01:08Z</time>
      </trkpt>
      <trkpt lat="45.17163" lon="4.57231">
        <ele>975.39</ele>
        <time>2017-01-29T14:01:26Z</time>
      </trkpt>
      <trkpt lat="45.17162" lon="4.57236">
        <ele>974.91</ele>
        <time>2017-01-29T14:03:10Z</time>
      </trkpt>
      <trkpt lat="45.1716" lon="4.57241">
        <ele>975.39</ele>
        <time>2017-01-29T14:03:26Z</time>
      </trkpt>
      <trkpt lat="45.17153" lon="4.57256">
        <ele>972.99</ele>
        <time>2017-01-29T14:03:40Z</time>
      </trkpt>
      <trkpt lat="45.17141" lon="4.57272">
        <ele>969.63</ele>
        <time>2017-01-29T14:03:56Z</time>
      </trkpt>
      <trkpt lat="45.17131" lon="4.57282">
        <ele>966.74</ele>
        <time>2017-01-29T14:04:09Z</time>
      </trkpt>
      <trkpt lat="45.17118" lon="4.57289">
        <ele>963.38</ele>
        <time>2017-01-29T14:04:22Z</time>
      </trkpt>
      <trkpt lat="45.17109" lon="4.5729">
        <ele>961.46</ele>
        <time>2017-01-29T14:04:34Z</time>
      </trkpt>
      <trkpt lat="45.17097" lon="4.5729">
        <ele>958.57</ele>
        <time>2017-01-29T14:04:48Z</time>
      </trkpt>
      <trkpt lat="45.17081" lon="4.57289">
        <ele>955.21</ele>
        <time>2017-01-29T14:05:01Z</time>
      </trkpt>
      <trkpt lat="45.1708" lon="4.57289">
        <ele>954.25</ele>
        <time>2017-01-29T14:05:02Z</time>
      </trkpt>
      <trkpt lat="45.17065" lon="4.5729">
        <ele>951.84</ele>
        <time>2017-01-29T14:05:15Z</time>
      </trkpt>
      <trkpt lat="45.17051" lon="4.57291">
        <ele>948.96</ele>
        <time>2017-01-29T14:05:29Z</time>
      </trkpt>
      <trkpt lat="45.17038" lon="4.57291">
        <ele>946.56</ele>
        <time>2017-01-29T14:05:43Z</time>
      </trkpt>
      <trkpt lat="45.17027" lon="4.57295">
        <ele>943.67</ele>
        <time>2017-01-29T14:05:58Z</time>
      </trkpt>
      <trkpt lat="45.17017" lon="4.57303">
        <ele>941.75</ele>
        <time>2017-01-29T14:06:12Z</time>
      </trkpt>
      <trkpt lat="45.17007" lon="4.57317">
        <ele>938.38</ele>
        <time>2017-01-29T14:06:24Z</time>
      </trkpt>
      <trkpt lat="45.17" lon="4.57331">
        <ele>935.02</ele>
        <time>2017-01-29T14:06:37Z</time>
      </trkpt>
      <trkpt lat="45.16988" lon="4.57346">
        <ele>931.65</ele>
        <time>2017-01-29T14:06:51Z</time>
      </trkpt>
      <trkpt lat="45.16987" lon="4.57348">
        <ele>931.65</ele>
        <time>2017-01-29T14:06:52Z</time>
      </trkpt>
      <trkpt lat="45.16977" lon="4.57364">
        <ele>928.29</ele>
        <time>2017-01-29T14:07:05Z</time>
      </trkpt>
      <trkpt lat="45.16973" lon="4.57371">
        <ele>927.33</ele>
        <time>2017-01-29T14:07:10Z</time>
      </trkpt>
      <trkpt lat="45.16964" lon="4.57391">
        <ele>923.48</ele>
        <time>2017-01-29T14:07:25Z</time>
      </trkpt>
      <trkpt lat="45.16957" lon="4.57405">
        <ele>922.04</ele>
        <time>2017-01-29T14:07:40Z</time>
      </trkpt>
      <trkpt lat="45.16952" lon="4.57407">
        <ele>923</ele>
        <time>2017-01-29T14:08:07Z</time>
      </trkpt>
      <trkpt lat="45.16943" lon="4.57392">
        <ele>922.04</ele>
        <time>2017-01-29T14:08:24Z</time>
      </trkpt>
      <trkpt lat="45.16941" lon="4.5738">
        <ele>923</ele>
        <time>2017-01-29T14:08:29Z</time>
      </trkpt>
      <trkpt lat="45.16936" lon="4.57365">
        <ele>923.48</ele>
        <time>2017-01-29T14:08:39Z</time>
      </trkpt>
      <trkpt lat="45.16932" lon="4.57361">
        <ele>923.96</ele>
        <time>2017-01-29T14:08:43Z</time>
      </trkpt>
      <trkpt lat="45.16927" lon="4.57359">
        <ele>922.52</ele>
        <time>2017-01-29T14:08:49Z</time>
      </trkpt>
      <trkpt lat="45.16919" lon="4.57355">
        <ele>920.12</ele>
        <time>2017-01-29T14:09:06Z</time>
      </trkpt>
      <trkpt lat="45.16917" lon="4.57355">
        <ele>920.12</ele>
        <time>2017-01-29T14:09:27Z</time>
      </trkpt>
      <trkpt lat="45.16917" lon="4.57352">
        <ele>920.12</ele>
        <time>2017-01-29T14:09:43Z</time>
      </trkpt>
      <trkpt lat="45.16918" lon="4.57329">
        <ele>921.56</ele>
        <time>2017-01-29T14:09:59Z</time>
      </trkpt>
      <trkpt lat="45.16918" lon="4.57303">
        <ele>921.56</ele>
        <time>2017-01-29T14:10:16Z</time>
      </trkpt>
      <trkpt lat="45.16918" lon="4.57285">
        <ele>921.56</ele>
        <time>2017-01-29T14:10:28Z</time>
      </trkpt>
      <trkpt lat="45.16916" lon="4.57275">
        <ele>921.56</ele>
        <time>2017-01-29T14:10:41Z</time>
      </trkpt>
      <trkpt lat="45.16916" lon="4.57271">
        <ele>921.56</ele>
        <time>2017-01-29T14:10:46Z</time>
      </trkpt>
      <trkpt lat="45.16917" lon="4.57248">
        <ele>919.64</ele>
        <time>2017-01-29T14:10:59Z</time>
      </trkpt>
      <trkpt lat="45.16918" lon="4.57241">
        <ele>919.64</ele>
        <time>2017-01-29T14:11:03Z</time>
      </trkpt>
      <trkpt lat="45.16922" lon="4.57225">
        <ele>919.64</ele>
        <time>2017-01-29T14:11:12Z</time>
      </trkpt>
      <trkpt lat="45.16929" lon="4.57205">
        <ele>919.16</ele>
        <time>2017-01-29T14:11:24Z</time>
      </trkpt>
      <trkpt lat="45.16941" lon="4.57183">
        <ele>919.16</ele>
        <time>2017-01-29T14:11:39Z</time>
      </trkpt>
      <trkpt lat="45.16948" lon="4.57175">
        <ele>918.2</ele>
        <time>2017-01-29T14:11:52Z</time>
      </trkpt>
      <trkpt lat="45.16952" lon="4.57175">
        <ele>918.2</ele>
        <time>2017-01-29T14:12:15Z</time>
      </trkpt>
      <trkpt lat="45.16951" lon="4.57172">
        <ele>917.72</ele>
        <time>2017-01-29T14:12:41Z</time>
      </trkpt>
      <trkpt lat="45.16948" lon="4.57176">
        <ele>916.75</ele>
        <time>2017-01-29T14:13:03Z</time>
      </trkpt>
      <trkpt lat="45.16947" lon="4.57176">
        <ele>916.75</ele>
        <time>2017-01-29T14:13:04Z</time>
      </trkpt>
      <trkpt lat="45.16937" lon="4.57187">
        <ele>918.2</ele>
        <time>2017-01-29T14:13:18Z</time>
      </trkpt>
      <trkpt lat="45.16935" lon="4.57191">
        <ele>918.68</ele>
        <time>2017-01-29T14:13:22Z</time>
      </trkpt>
      <trkpt lat="45.16927" lon="4.57211">
        <ele>919.64</ele>
        <time>2017-01-29T14:13:38Z</time>
      </trkpt>
      <trkpt lat="45.16919" lon="4.57232">
        <ele>920.6</ele>
        <time>2017-01-29T14:13:54Z</time>
      </trkpt>
      <trkpt lat="45.16917" lon="4.57256">
        <ele>921.08</ele>
        <time>2017-01-29T14:14:10Z</time>
      </trkpt>
      <trkpt lat="45.16917" lon="4.57263">
        <ele>921.08</ele>
        <time>2017-01-29T14:14:15Z</time>
      </trkpt>
      <trkpt lat="45.16916" lon="4.57283">
        <ele>921.56</ele>
        <time>2017-01-29T14:14:28Z</time>
      </trkpt>
      <trkpt lat="45.16916" lon="4.57306">
        <ele>922.04</ele>
        <time>2017-01-29T14:14:43Z</time>
      </trkpt>
      <trkpt lat="45.16914" lon="4.57312">
        <ele>922.04</ele>
        <time>2017-01-29T14:15:50Z</time>
      </trkpt>
      <trkpt lat="45.16912" lon="4.57311">
        <ele>920.6</ele>
        <time>2017-01-29T14:15:58Z</time>
      </trkpt>
      <trkpt lat="45.16905" lon="4.57307">
        <ele>918.2</ele>
        <time>2017-01-29T14:16:10Z</time>
      </trkpt>
      <trkpt lat="45.16902" lon="4.57305">
        <ele>917.24</ele>
        <time>2017-01-29T14:16:25Z</time>
      </trkpt>
      <trkpt lat="45.16899" lon="4.57301">
        <ele>916.27</ele>
        <time>2017-01-29T14:16:29Z</time>
      </trkpt>
      <trkpt lat="45.1689" lon="4.57299">
        <ele>911.95</ele>
        <time>2017-01-29T14:16:43Z</time>
      </trkpt>
      <trkpt lat="45.16882" lon="4.57307">
        <ele>908.58</ele>
        <time>2017-01-29T14:16:57Z</time>
      </trkpt>
      <trkpt lat="45.16879" lon="4.57312">
        <ele>907.14</ele>
        <time>2017-01-29T14:17:02Z</time>
      </trkpt>
      <trkpt lat="45.16872" lon="4.57323">
        <ele>903.78</ele>
        <time>2017-01-29T14:17:12Z</time>
      </trkpt>
      <trkpt lat="45.16862" lon="4.57337">
        <ele>900.41</ele>
        <time>2017-01-29T14:17:24Z</time>
      </trkpt>
      <trkpt lat="45.16861" lon="4.57338">
        <ele>900.41</ele>
        <time>2017-01-29T14:17:25Z</time>
      </trkpt>
      <trkpt lat="45.1686" lon="4.57338">
        <ele>901.37</ele>
        <time>2017-01-29T14:17:39Z</time>
      </trkpt>
      <trkpt lat="45.16858" lon="4.57338">
        <ele>899.93</ele>
        <time>2017-01-29T14:17:50Z</time>
      </trkpt>
      <trkpt lat="45.16856" lon="4.57335">
        <ele>901.37</ele>
        <time>2017-01-29T14:17:54Z</time>
      </trkpt>
      <trkpt lat="45.16855" lon="4.57333">
        <ele>899.93</ele>
        <time>2017-01-29T14:17:57Z</time>
      </trkpt>
      <trkpt lat="45.16846" lon="4.57326">
        <ele>896.57</ele>
        <time>2017-01-29T14:18:11Z</time>
      </trkpt>
      <trkpt lat="45.16844" lon="4.57324">
        <ele>896.09</ele>
        <time>2017-01-29T14:18:14Z</time>
      </trkpt>
      <trkpt lat="45.16833" lon="4.57317">
        <ele>891.76</ele>
        <time>2017-01-29T14:18:25Z</time>
      </trkpt>
      <trkpt lat="45.16821" lon="4.5731">
        <ele>888.4</ele>
        <time>2017-01-29T14:18:40Z</time>
      </trkpt>
      <trkpt lat="45.16819" lon="4.5731">
        <ele>887.91</ele>
        <time>2017-01-29T14:19:01Z</time>
      </trkpt>
      <trkpt lat="45.16819" lon="4.57325">
        <ele>887.91</ele>
        <time>2017-01-29T14:19:16Z</time>
      </trkpt>
      <trkpt lat="45.16821" lon="4.57341">
        <ele>887.43</ele>
        <time>2017-01-29T14:19:29Z</time>
      </trkpt>
      <trkpt lat="45.16823" lon="4.57365">
        <ele>885.99</ele>
        <time>2017-01-29T14:19:44Z</time>
      </trkpt>
      <trkpt lat="45.16822" lon="4.57371">
        <ele>885.99</ele>
        <time>2017-01-29T14:19:47Z</time>
      </trkpt>
      <trkpt lat="45.16821" lon="4.57395">
        <ele>885.03</ele>
        <time>2017-01-29T14:20:01Z</time>
      </trkpt>
      <trkpt lat="45.16817" lon="4.57418">
        <ele>885.03</ele>
        <time>2017-01-29T14:20:16Z</time>
      </trkpt>
      <trkpt lat="45.16819" lon="4.57421">
        <ele>885.03</ele>
        <time>2017-01-29T14:20:42Z</time>
      </trkpt>
      <trkpt lat="45.16819" lon="4.57428">
        <ele>885.03</ele>
        <time>2017-01-29T14:21:00Z</time>
      </trkpt>
      <trkpt lat="45.16815" lon="4.57444">
        <ele>884.07</ele>
        <time>2017-01-29T14:21:17Z</time>
      </trkpt>
      <trkpt lat="45.16811" lon="4.57464">
        <ele>883.11</ele>
        <time>2017-01-29T14:21:32Z</time>
      </trkpt>
      <trkpt lat="45.16801" lon="4.57473">
        <ele>881.19</ele>
        <time>2017-01-29T14:21:43Z</time>
      </trkpt>
      <trkpt lat="45.16788" lon="4.57478">
        <ele>877.82</ele>
        <time>2017-01-29T14:21:55Z</time>
      </trkpt>
      <trkpt lat="45.16772" lon="4.57483">
        <ele>874.46</ele>
        <time>2017-01-29T14:22:10Z</time>
      </trkpt>
      <trkpt lat="45.16753" lon="4.57481">
        <ele>871.09</ele>
        <time>2017-01-29T14:22:26Z</time>
      </trkpt>
      <trkpt lat="45.16747" lon="4.57479">
        <ele>870.61</ele>
        <time>2017-01-29T14:22:31Z</time>
      </trkpt>
      <trkpt lat="45.16732" lon="4.57468">
        <ele>868.69</ele>
        <time>2017-01-29T14:22:48Z</time>
      </trkpt>
      <trkpt lat="45.1673" lon="4.57467">
        <ele>868.69</ele>
        <time>2017-01-29T14:23:10Z</time>
      </trkpt>
      <trkpt lat="45.1672" lon="4.57456">
        <ele>867.73</ele>
        <time>2017-01-29T14:23:24Z</time>
      </trkpt>
      <trkpt lat="45.1672" lon="4.57454">
        <ele>867.73</ele>
        <time>2017-01-29T14:23:43Z</time>
      </trkpt>
      <trkpt lat="45.1672" lon="4.57451">
        <ele>867.73</ele>
        <time>2017-01-29T14:24:10Z</time>
      </trkpt>
      <trkpt lat="45.1672" lon="4.57451">
        <ele>867.73</ele>
        <time>2017-01-29T14:24:33Z</time>
      </trkpt>
      <trkpt lat="45.1672" lon="4.57448">
        <ele>868.21</ele>
        <time>2017-01-29T14:24:55Z</time>
      </trkpt>
      <trkpt lat="45.16719" lon="4.5744">
        <ele>867.25</ele>
        <time>2017-01-29T14:25:06Z</time>
      </trkpt>
      <trkpt lat="45.16719" lon="4.57425">
        <ele>865.8</ele>
        <time>2017-01-29T14:25:21Z</time>
      </trkpt>
      <trkpt lat="45.1672" lon="4.57417">
        <ele>865.8</ele>
        <time>2017-01-29T14:25:27Z</time>
      </trkpt>
      <trkpt lat="45.16721" lon="4.57385">
        <ele>863.4</ele>
        <time>2017-01-29T14:25:47Z</time>
      </trkpt>
      <trkpt lat="45.1672" lon="4.57381">
        <ele>862.92</ele>
        <time>2017-01-29T14:26:13Z</time>
      </trkpt>
      <trkpt lat="45.1672" lon="4.57364">
        <ele>861.48</ele>
        <time>2017-01-29T14:26:30Z</time>
      </trkpt>
      <trkpt lat="45.1672" lon="4.57333">
        <ele>858.59</ele>
        <time>2017-01-29T14:26:48Z</time>
      </trkpt>
      <trkpt lat="45.16719" lon="4.57304">
        <ele>856.19</ele>
        <time>2017-01-29T14:27:04Z</time>
      </trkpt>
      <trkpt lat="45.16721" lon="4.5727">
        <ele>853.31</ele>
        <time>2017-01-29T14:27:23Z</time>
      </trkpt>
      <trkpt lat="45.16722" lon="4.5726">
        <ele>852.83</ele>
        <time>2017-01-29T14:27:29Z</time>
      </trkpt>
      <trkpt lat="45.16726" lon="4.57239">
        <ele>851.38</ele>
        <time>2017-01-29T14:27:40Z</time>
      </trkpt>
      <trkpt lat="45.16737" lon="4.57208">
        <ele>848.98</ele>
        <time>2017-01-29T14:27:59Z</time>
      </trkpt>
      <trkpt lat="45.16745" lon="4.57185">
        <ele>847.54</ele>
        <time>2017-01-29T14:28:15Z</time>
      </trkpt>
      <trkpt lat="45.16751" lon="4.57167">
        <ele>846.1</ele>
        <time>2017-01-29T14:28:26Z</time>
      </trkpt>
      <trkpt lat="45.16759" lon="4.57146">
        <ele>844.66</ele>
        <time>2017-01-29T14:28:42Z</time>
      </trkpt>
      <trkpt lat="45.16764" lon="4.57128">
        <ele>843.21</ele>
        <time>2017-01-29T14:28:55Z</time>
      </trkpt>
      <trkpt lat="45.16772" lon="4.57101">
        <ele>841.29</ele>
        <time>2017-01-29T14:29:14Z</time>
      </trkpt>
      <trkpt lat="45.16769" lon="4.57084">
        <ele>839.37</ele>
        <time>2017-01-29T14:29:29Z</time>
      </trkpt>
      <trkpt lat="45.16761" lon="4.57093">
        <ele>836.48</ele>
        <time>2017-01-29T14:29:44Z</time>
      </trkpt>
      <trkpt lat="45.16749" lon="4.5711">
        <ele>835.04</ele>
        <time>2017-01-29T14:29:59Z</time>
      </trkpt>
      <trkpt lat="45.16736" lon="4.57124">
        <ele>833.12</ele>
        <time>2017-01-29T14:30:14Z</time>
      </trkpt>
      <trkpt lat="45.16725" lon="4.57139">
        <ele>830.72</ele>
        <time>2017-01-29T14:30:28Z</time>
      </trkpt>
      <trkpt lat="45.16711" lon="4.57154">
        <ele>828.79</ele>
        <time>2017-01-29T14:30:43Z</time>
      </trkpt>
      <trkpt lat="45.16702" lon="4.57165">
        <ele>828.31</ele>
        <time>2017-01-29T14:30:58Z</time>
      </trkpt>
      <trkpt lat="45.16693" lon="4.57174">
        <ele>826.87</ele>
        <time>2017-01-29T14:31:14Z</time>
      </trkpt>
      <trkpt lat="45.16691" lon="4.57177">
        <ele>826.87</ele>
        <time>2017-01-29T14:31:30Z</time>
      </trkpt>
      <trkpt lat="45.16688" lon="4.57176">
        <ele>825.91</ele>
        <time>2017-01-29T14:31:46Z</time>
      </trkpt>
      <trkpt lat="45.16687" lon="4.57168">
        <ele>825.43</ele>
        <time>2017-01-29T14:32:05Z</time>
      </trkpt>
      <trkpt lat="45.16685" lon="4.5715">
        <ele>822.06</ele>
        <time>2017-01-29T14:32:19Z</time>
      </trkpt>
      <trkpt lat="45.16687" lon="4.57133">
        <ele>818.7</ele>
        <time>2017-01-29T14:32:31Z</time>
      </trkpt>
      <trkpt lat="45.16686" lon="4.5712">
        <ele>815.82</ele>
        <time>2017-01-29T14:32:43Z</time>
      </trkpt>
      <trkpt lat="45.16688" lon="4.57105">
        <ele>812.93</ele>
        <time>2017-01-29T14:32:56Z</time>
      </trkpt>
      <trkpt lat="45.16692" lon="4.57085">
        <ele>809.57</ele>
        <time>2017-01-29T14:33:11Z</time>
      </trkpt>
      <trkpt lat="45.16696" lon="4.57076">
        <ele>808.13</ele>
        <time>2017-01-29T14:33:22Z</time>
      </trkpt>
      <trkpt lat="45.167" lon="4.57054">
        <ele>804.76</ele>
        <time>2017-01-29T14:33:36Z</time>
      </trkpt>
      <trkpt lat="45.16701" lon="4.57051">
        <ele>804.28</ele>
        <time>2017-01-29T14:33:38Z</time>
      </trkpt>
      <trkpt lat="45.16703" lon="4.57034">
        <ele>802.36</ele>
        <time>2017-01-29T14:33:50Z</time>
      </trkpt>
      <trkpt lat="45.16706" lon="4.57009">
        <ele>799.95</ele>
        <time>2017-01-29T14:34:07Z</time>
      </trkpt>
      <trkpt lat="45.16713" lon="4.56988">
        <ele>797.07</ele>
        <time>2017-01-29T14:34:22Z</time>
      </trkpt>
      <trkpt lat="45.16715" lon="4.56975">
        <ele>794.19</ele>
        <time>2017-01-29T14:34:37Z</time>
      </trkpt>
      <trkpt lat="45.16717" lon="4.56971">
        <ele>793.71</ele>
        <time>2017-01-29T14:34:58Z</time>
      </trkpt>
      <trkpt lat="45.16714" lon="4.56965">
        <ele>793.71</ele>
        <time>2017-01-29T14:35:17Z</time>
      </trkpt>
      <trkpt lat="45.16711" lon="4.56965">
        <ele>794.19</ele>
        <time>2017-01-29T14:35:37Z</time>
      </trkpt>
      <trkpt lat="45.16711" lon="4.56964">
        <ele>791.3</ele>
        <time>2017-01-29T14:35:50Z</time>
      </trkpt>
      <trkpt lat="45.1671" lon="4.56964">
        <ele>794.67</ele>
        <time>2017-01-29T14:35:51Z</time>
      </trkpt>
      <trkpt lat="45.16703" lon="4.56959">
        <ele>792.74</ele>
        <time>2017-01-29T14:36:06Z</time>
      </trkpt>
      <trkpt lat="45.16703" lon="4.56955">
        <ele>792.74</ele>
        <time>2017-01-29T14:36:23Z</time>
      </trkpt>
      <trkpt lat="45.16707" lon="4.56952">
        <ele>792.26</ele>
        <time>2017-01-29T14:36:43Z</time>
      </trkpt>
      <trkpt lat="45.16707" lon="4.56954">
        <ele>792.26</ele>
        <time>2017-01-29T14:37:01Z</time>
      </trkpt>
      <trkpt lat="45.16706" lon="4.56945">
        <ele>790.34</ele>
        <time>2017-01-29T14:37:16Z</time>
      </trkpt>
      <trkpt lat="45.167" lon="4.56936">
        <ele>786.98</ele>
        <time>2017-01-29T14:37:30Z</time>
      </trkpt>
      <trkpt lat="45.16693" lon="4.56931">
        <ele>785.05</ele>
        <time>2017-01-29T14:37:41Z</time>
      </trkpt>
      <trkpt lat="45.16682" lon="4.56941">
        <ele>783.61</ele>
        <time>2017-01-29T14:37:56Z</time>
      </trkpt>
      <trkpt lat="45.16678" lon="4.56946">
        <ele>782.17</ele>
        <time>2017-01-29T14:38:21Z</time>
      </trkpt>
      <trkpt lat="45.1667" lon="4.56953">
        <ele>780.25</ele>
        <time>2017-01-29T14:38:34Z</time>
      </trkpt>
      <trkpt lat="45.16664" lon="4.56958">
        <ele>777.84</ele>
        <time>2017-01-29T14:38:45Z</time>
      </trkpt>
      <trkpt lat="45.1666" lon="4.5695">
        <ele>776.4</ele>
        <time>2017-01-29T14:38:59Z</time>
      </trkpt>
      <trkpt lat="45.16658" lon="4.56941">
        <ele>775.92</ele>
        <time>2017-01-29T14:39:14Z</time>
      </trkpt>
      <trkpt lat="45.16654" lon="4.56939">
        <ele>775.92</ele>
        <time>2017-01-29T14:39:39Z</time>
      </trkpt>
      <trkpt lat="45.16647" lon="4.56935">
        <ele>775.92</ele>
        <time>2017-01-29T14:40:07Z</time>
      </trkpt>
      <trkpt lat="45.16637" lon="4.56931">
        <ele>777.36</ele>
        <time>2017-01-29T14:40:20Z</time>
      </trkpt>
      <trkpt lat="45.16623" lon="4.56925">
        <ele>779.29</ele>
        <time>2017-01-29T14:40:34Z</time>
      </trkpt>
      <trkpt lat="45.16611" lon="4.56922">
        <ele>780.73</ele>
        <time>2017-01-29T14:40:50Z</time>
      </trkpt>
      <trkpt lat="45.16597" lon="4.56918">
        <ele>781.69</ele>
        <time>2017-01-29T14:41:05Z</time>
      </trkpt>
      <trkpt lat="45.16583" lon="4.56915">
        <ele>782.65</ele>
        <time>2017-01-29T14:41:19Z</time>
      </trkpt>
      <trkpt lat="45.16572" lon="4.56914">
        <ele>784.09</ele>
        <time>2017-01-29T14:41:30Z</time>
      </trkpt>
      <trkpt lat="45.16563" lon="4.56913">
        <ele>786.02</ele>
        <time>2017-01-29T14:41:42Z</time>
      </trkpt>
      <trkpt lat="45.16552" lon="4.56907">
        <ele>786.02</ele>
        <time>2017-01-29T14:41:55Z</time>
      </trkpt>
      <trkpt lat="45.16539" lon="4.56898">
        <ele>787.94</ele>
        <time>2017-01-29T14:42:10Z</time>
      </trkpt>
      <trkpt lat="45.16537" lon="4.56898">
        <ele>789.38</ele>
        <time>2017-01-29T14:42:12Z</time>
      </trkpt>
      <trkpt lat="45.16526" lon="4.56896">
        <ele>790.34</ele>
        <time>2017-01-29T14:42:25Z</time>
      </trkpt>
      <trkpt lat="45.1651" lon="4.56894">
        <ele>791.3</ele>
        <time>2017-01-29T14:42:40Z</time>
      </trkpt>
      <trkpt lat="45.16494" lon="4.56896">
        <ele>792.74</ele>
        <time>2017-01-29T14:42:53Z</time>
      </trkpt>
      <trkpt lat="45.16482" lon="4.56899">
        <ele>792.74</ele>
        <time>2017-01-29T14:43:07Z</time>
      </trkpt>
      <trkpt lat="45.16469" lon="4.569">
        <ele>792.74</ele>
        <time>2017-01-29T14:43:19Z</time>
      </trkpt>
      <trkpt lat="45.16457" lon="4.56906">
        <ele>790.82</ele>
        <time>2017-01-29T14:43:33Z</time>
      </trkpt>
      <trkpt lat="45.16441" lon="4.56916">
        <ele>789.38</ele>
        <time>2017-01-29T14:43:48Z</time>
      </trkpt>
      <trkpt lat="45.16427" lon="4.56921">
        <ele>788.42</ele>
        <time>2017-01-29T14:44:01Z</time>
      </trkpt>
      <trkpt lat="45.16414" lon="4.56926">
        <ele>786.98</ele>
        <time>2017-01-29T14:44:14Z</time>
      </trkpt>
      <trkpt lat="45.16408" lon="4.56936">
        <ele>786.02</ele>
        <time>2017-01-29T14:44:26Z</time>
      </trkpt>
      <trkpt lat="45.16395" lon="4.56956">
        <ele>785.05</ele>
        <time>2017-01-29T14:44:41Z</time>
      </trkpt>
      <trkpt lat="45.16385" lon="4.56967">
        <ele>784.09</ele>
        <time>2017-01-29T14:44:56Z</time>
      </trkpt>
      <trkpt lat="45.16377" lon="4.56983">
        <ele>782.17</ele>
        <time>2017-01-29T14:45:10Z</time>
      </trkpt>
      <trkpt lat="45.16364" lon="4.56998">
        <ele>780.73</ele>
        <time>2017-01-29T14:45:26Z</time>
      </trkpt>
      <trkpt lat="45.16356" lon="4.57006">
        <ele>779.29</ele>
        <time>2017-01-29T14:45:40Z</time>
      </trkpt>
      <trkpt lat="45.16345" lon="4.57015">
        <ele>777.84</ele>
        <time>2017-01-29T14:45:54Z</time>
      </trkpt>
      <trkpt lat="45.16335" lon="4.57022">
        <ele>776.4</ele>
        <time>2017-01-29T14:46:08Z</time>
      </trkpt>
      <trkpt lat="45.16323" lon="4.57031">
        <ele>774.48</ele>
        <time>2017-01-29T14:46:24Z</time>
      </trkpt>
      <trkpt lat="45.16312" lon="4.57035">
        <ele>771.6</ele>
        <time>2017-01-29T14:46:38Z</time>
      </trkpt>
      <trkpt lat="45.16302" lon="4.57045">
        <ele>769.19</ele>
        <time>2017-01-29T14:46:53Z</time>
      </trkpt>
      <trkpt lat="45.16285" lon="4.57049">
        <ele>768.23</ele>
        <time>2017-01-29T14:47:11Z</time>
      </trkpt>
      <trkpt lat="45.16279" lon="4.57055">
        <ele>767.75</ele>
        <time>2017-01-29T14:47:23Z</time>
      </trkpt>
      <trkpt lat="45.16268" lon="4.57065">
        <ele>765.83</ele>
        <time>2017-01-29T14:47:38Z</time>
      </trkpt>
      <trkpt lat="45.16259" lon="4.57073">
        <ele>764.39</ele>
        <time>2017-01-29T14:47:51Z</time>
      </trkpt>
      <trkpt lat="45.16249" lon="4.5708">
        <ele>761.98</ele>
        <time>2017-01-29T14:48:03Z</time>
      </trkpt>
      <trkpt lat="45.16241" lon="4.57086">
        <ele>761.5</ele>
        <time>2017-01-29T14:48:19Z</time>
      </trkpt>
      <trkpt lat="45.16236" lon="4.57091">
        <ele>760.06</ele>
        <time>2017-01-29T14:48:33Z</time>
      </trkpt>
      <trkpt lat="45.16235" lon="4.57097">
        <ele>759.58</ele>
        <time>2017-01-29T14:48:52Z</time>
      </trkpt>
      <trkpt lat="45.16223" lon="4.57107">
        <ele>757.66</ele>
        <time>2017-01-29T14:49:09Z</time>
      </trkpt>
      <trkpt lat="45.16213" lon="4.57117">
        <ele>755.25</ele>
        <time>2017-01-29T14:49:24Z</time>
      </trkpt>
      <trkpt lat="45.16207" lon="4.57123">
        <ele>753.33</ele>
        <time>2017-01-29T14:49:35Z</time>
      </trkpt>
      <trkpt lat="45.16201" lon="4.57141">
        <ele>751.41</ele>
        <time>2017-01-29T14:49:49Z</time>
      </trkpt>
      <trkpt lat="45.1619" lon="4.57159">
        <ele>749</ele>
        <time>2017-01-29T14:50:05Z</time>
      </trkpt>
      <trkpt lat="45.16184" lon="4.57173">
        <ele>745.64</ele>
        <time>2017-01-29T14:50:17Z</time>
      </trkpt>
      <trkpt lat="45.16179" lon="4.57189">
        <ele>742.76</ele>
        <time>2017-01-29T14:50:32Z</time>
      </trkpt>
      <trkpt lat="45.16172" lon="4.57204">
        <ele>741.31</ele>
        <time>2017-01-29T14:50:45Z</time>
      </trkpt>
      <trkpt lat="45.16164" lon="4.5722">
        <ele>738.43</ele>
        <time>2017-01-29T14:50:57Z</time>
      </trkpt>
      <trkpt lat="45.16154" lon="4.57243">
        <ele>736.03</ele>
        <time>2017-01-29T14:51:13Z</time>
      </trkpt>
      <trkpt lat="45.16149" lon="4.57236">
        <ele>734.58</ele>
        <time>2017-01-29T14:51:33Z</time>
      </trkpt>
      <trkpt lat="45.16148" lon="4.57219">
        <ele>731.7</ele>
        <time>2017-01-29T14:51:47Z</time>
      </trkpt>
      <trkpt lat="45.16142" lon="4.57196">
        <ele>728.82</ele>
        <time>2017-01-29T14:52:04Z</time>
      </trkpt>
      <trkpt lat="45.1614" lon="4.57179">
        <ele>725.45</ele>
        <time>2017-01-29T14:52:19Z</time>
      </trkpt>
      <trkpt lat="45.16139" lon="4.5716">
        <ele>724.97</ele>
        <time>2017-01-29T14:52:32Z</time>
      </trkpt>
      <trkpt lat="45.16142" lon="4.57141">
        <ele>724.97</ele>
        <time>2017-01-29T14:52:47Z</time>
      </trkpt>
      <trkpt lat="45.16148" lon="4.57123">
        <ele>724.97</ele>
        <time>2017-01-29T14:53:01Z</time>
      </trkpt>
      <trkpt lat="45.16155" lon="4.57095">
        <ele>724.49</ele>
        <time>2017-01-29T14:53:16Z</time>
      </trkpt>
      <trkpt lat="45.16162" lon="4.57076">
        <ele>724.49</ele>
        <time>2017-01-29T14:53:29Z</time>
      </trkpt>
      <trkpt lat="45.16171" lon="4.5706">
        <ele>724.01</ele>
        <time>2017-01-29T14:53:44Z</time>
      </trkpt>
      <trkpt lat="45.16182" lon="4.57042">
        <ele>724.01</ele>
        <time>2017-01-29T14:54:00Z</time>
      </trkpt>
      <trkpt lat="45.1619" lon="4.57028">
        <ele>723.53</ele>
        <time>2017-01-29T14:54:14Z</time>
      </trkpt>
      <trkpt lat="45.16199" lon="4.57011">
        <ele>723.53</ele>
        <time>2017-01-29T14:54:29Z</time>
      </trkpt>
      <trkpt lat="45.16213" lon="4.56987">
        <ele>722.09</ele>
        <time>2017-01-29T14:54:44Z</time>
      </trkpt>
      <trkpt lat="45.16223" lon="4.56965">
        <ele>720.16</ele>
        <time>2017-01-29T14:54:58Z</time>
      </trkpt>
      <trkpt lat="45.16231" lon="4.56945">
        <ele>717.76</ele>
        <time>2017-01-29T14:55:13Z</time>
      </trkpt>
      <trkpt lat="45.16238" lon="4.56928">
        <ele>716.32</ele>
        <time>2017-01-29T14:55:27Z</time>
      </trkpt>
      <trkpt lat="45.16244" lon="4.569">
        <ele>714.88</ele>
        <time>2017-01-29T14:55:43Z</time>
      </trkpt>
      <trkpt lat="45.1625" lon="4.56869">
        <ele>713.92</ele>
        <time>2017-01-29T14:55:58Z</time>
      </trkpt>
      <trkpt lat="45.1625" lon="4.56844">
        <ele>712.47</ele>
        <time>2017-01-29T14:56:14Z</time>
      </trkpt>
      <trkpt lat="45.16246" lon="4.56825">
        <ele>711.51</ele>
        <time>2017-01-29T14:56:29Z</time>
      </trkpt>
      <trkpt lat="45.16226" lon="4.568">
        <ele>709.11</ele>
        <time>2017-01-29T14:56:46Z</time>
      </trkpt>
      <trkpt lat="45.16217" lon="4.56786">
        <ele>707.19</ele>
        <time>2017-01-29T14:57:01Z</time>
      </trkpt>
      <trkpt lat="45.16212" lon="4.56777">
        <ele>705.26</ele>
        <time>2017-01-29T14:57:12Z</time>
      </trkpt>
      <trkpt lat="45.1621" lon="4.56762">
        <ele>703.82</ele>
        <time>2017-01-29T14:57:27Z</time>
      </trkpt>
      <trkpt lat="45.16203" lon="4.56758">
        <ele>700.94</ele>
        <time>2017-01-29T14:57:39Z</time>
      </trkpt>
      <trkpt lat="45.16197" lon="4.56766">
        <ele>699.98</ele>
        <time>2017-01-29T14:57:56Z</time>
      </trkpt>
      <trkpt lat="45.16197" lon="4.56775">
        <ele>699.5</ele>
        <time>2017-01-29T14:58:09Z</time>
      </trkpt>
      <trkpt lat="45.16197" lon="4.56787">
        <ele>698.05</ele>
        <time>2017-01-29T14:58:25Z</time>
      </trkpt>
      <trkpt lat="45.16195" lon="4.56793">
        <ele>697.09</ele>
        <time>2017-01-29T14:58:40Z</time>
      </trkpt>
      <trkpt lat="45.16191" lon="4.56793">
        <ele>696.13</ele>
        <time>2017-01-29T14:58:54Z</time>
      </trkpt>
      <trkpt lat="45.1619" lon="4.5679">
        <ele>695.65</ele>
        <time>2017-01-29T14:59:09Z</time>
      </trkpt>
      <trkpt lat="45.16192" lon="4.56791">
        <ele>696.13</ele>
        <time>2017-01-29T14:59:35Z</time>
      </trkpt>
      <trkpt lat="45.16188" lon="4.56786">
        <ele>694.69</ele>
        <time>2017-01-29T14:59:53Z</time>
      </trkpt>
      <trkpt lat="45.16184" lon="4.5678">
        <ele>693.73</ele>
        <time>2017-01-29T15:00:09Z</time>
      </trkpt>
      <trkpt lat="45.16181" lon="4.56771">
        <ele>692.29</ele>
        <time>2017-01-29T15:00:22Z</time>
      </trkpt>
      <trkpt lat="45.16175" lon="4.56759">
        <ele>690.84</ele>
        <time>2017-01-29T15:00:32Z</time>
      </trkpt>
      <trkpt lat="45.16172" lon="4.56738">
        <ele>687.96</ele>
        <time>2017-01-29T15:00:48Z</time>
      </trkpt>
      <trkpt lat="45.1617" lon="4.56722">
        <ele>686.04</ele>
        <time>2017-01-29T15:01:01Z</time>
      </trkpt>
      <trkpt lat="45.16169" lon="4.56717">
        <ele>685.56</ele>
        <time>2017-01-29T15:01:18Z</time>
      </trkpt>
      <trkpt lat="45.16169" lon="4.56718">
        <ele>686.04</ele>
        <time>2017-01-29T15:01:35Z</time>
      </trkpt>
      <trkpt lat="45.16167" lon="4.56718">
        <ele>686.04</ele>
        <time>2017-01-29T15:01:53Z</time>
      </trkpt>
      <trkpt lat="45.16164" lon="4.56724">
        <ele>685.56</ele>
        <time>2017-01-29T15:02:08Z</time>
      </trkpt>
      <trkpt lat="45.16155" lon="4.56751">
        <ele>683.63</ele>
        <time>2017-01-29T15:02:27Z</time>
      </trkpt>
      <trkpt lat="45.16151" lon="4.56771">
        <ele>682.67</ele>
        <time>2017-01-29T15:02:39Z</time>
      </trkpt>
      <trkpt lat="45.16155" lon="4.56802">
        <ele>680.75</ele>
        <time>2017-01-29T15:02:57Z</time>
      </trkpt>
      <trkpt lat="45.16154" lon="4.56831">
        <ele>680.27</ele>
        <time>2017-01-29T15:03:15Z</time>
      </trkpt>
      <trkpt lat="45.16143" lon="4.56854">
        <ele>679.79</ele>
        <time>2017-01-29T15:03:30Z</time>
      </trkpt>
      <trkpt lat="45.16142" lon="4.56857">
        <ele>679.79</ele>
        <time>2017-01-29T15:03:32Z</time>
      </trkpt>
      <trkpt lat="45.16124" lon="4.56879">
        <ele>679.79</ele>
        <time>2017-01-29T15:03:51Z</time>
      </trkpt>
      <trkpt lat="45.16109" lon="4.56897">
        <ele>679.79</ele>
        <time>2017-01-29T15:04:05Z</time>
      </trkpt>
      <trkpt lat="45.16091" lon="4.56919">
        <ele>679.79</ele>
        <time>2017-01-29T15:04:23Z</time>
      </trkpt>
      <trkpt lat="45.1608" lon="4.56942">
        <ele>679.79</ele>
        <time>2017-01-29T15:04:39Z</time>
      </trkpt>
      <trkpt lat="45.16071" lon="4.56967">
        <ele>678.83</ele>
        <time>2017-01-29T15:04:56Z</time>
      </trkpt>
      <trkpt lat="45.16065" lon="4.56992">
        <ele>677.39</ele>
        <time>2017-01-29T15:05:12Z</time>
      </trkpt>
      <trkpt lat="45.16056" lon="4.57018">
        <ele>675.46</ele>
        <time>2017-01-29T15:05:27Z</time>
      </trkpt>
      <trkpt lat="45.16051" lon="4.57042">
        <ele>674.02</ele>
        <time>2017-01-29T15:05:43Z</time>
      </trkpt>
      <trkpt lat="45.16042" lon="4.57065">
        <ele>672.1</ele>
        <time>2017-01-29T15:05:59Z</time>
      </trkpt>
      <trkpt lat="45.16037" lon="4.57078">
        <ele>671.62</ele>
        <time>2017-01-29T15:06:06Z</time>
      </trkpt>
      <trkpt lat="45.16029" lon="4.57101">
        <ele>669.7</ele>
        <time>2017-01-29T15:06:20Z</time>
      </trkpt>
      <trkpt lat="45.16027" lon="4.57107">
        <ele>668.73</ele>
        <time>2017-01-29T15:06:23Z</time>
      </trkpt>
      <trkpt lat="45.16017" lon="4.57128">
        <ele>666.81</ele>
        <time>2017-01-29T15:06:36Z</time>
      </trkpt>
      <trkpt lat="45.16006" lon="4.57145">
        <ele>665.37</ele>
        <time>2017-01-29T15:06:49Z</time>
      </trkpt>
      <trkpt lat="45.15992" lon="4.57164">
        <ele>663.93</ele>
        <time>2017-01-29T15:07:03Z</time>
      </trkpt>
      <trkpt lat="45.15976" lon="4.57176">
        <ele>662.01</ele>
        <time>2017-01-29T15:07:16Z</time>
      </trkpt>
      <trkpt lat="45.1596" lon="4.5719">
        <ele>660.56</ele>
        <time>2017-01-29T15:07:29Z</time>
      </trkpt>
      <trkpt lat="45.15953" lon="4.57205">
        <ele>659.6</ele>
        <time>2017-01-29T15:07:44Z</time>
      </trkpt>
      <trkpt lat="45.15945" lon="4.57221">
        <ele>657.2</ele>
        <time>2017-01-29T15:07:59Z</time>
      </trkpt>
      <trkpt lat="45.15936" lon="4.5724">
        <ele>654.31</ele>
        <time>2017-01-29T15:08:14Z</time>
      </trkpt>
      <trkpt lat="45.15925" lon="4.57261">
        <ele>652.87</ele>
        <time>2017-01-29T15:08:27Z</time>
      </trkpt>
      <trkpt lat="45.15922" lon="4.57269">
        <ele>652.39</ele>
        <time>2017-01-29T15:08:32Z</time>
      </trkpt>
      <trkpt lat="45.15912" lon="4.57286">
        <ele>650.95</ele>
        <time>2017-01-29T15:08:44Z</time>
      </trkpt>
      <trkpt lat="45.15907" lon="4.57298">
        <ele>649.51</ele>
        <time>2017-01-29T15:08:51Z</time>
      </trkpt>
      <trkpt lat="45.15901" lon="4.57323">
        <ele>648.07</ele>
        <time>2017-01-29T15:09:05Z</time>
      </trkpt>
      <trkpt lat="45.15901" lon="4.57327">
        <ele>647.59</ele>
        <time>2017-01-29T15:09:07Z</time>
      </trkpt>
      <trkpt lat="45.15896" lon="4.57358">
        <ele>646.14</ele>
        <time>2017-01-29T15:09:23Z</time>
      </trkpt>
      <trkpt lat="45.15892" lon="4.57383">
        <ele>643.74</ele>
        <time>2017-01-29T15:09:39Z</time>
      </trkpt>
      <trkpt lat="45.15889" lon="4.574">
        <ele>642.78</ele>
        <time>2017-01-29T15:09:49Z</time>
      </trkpt>
      <trkpt lat="45.15876" lon="4.57417">
        <ele>641.82</ele>
        <time>2017-01-29T15:10:03Z</time>
      </trkpt>
      <trkpt lat="45.15856" lon="4.57427">
        <ele>639.89</ele>
        <time>2017-01-29T15:10:18Z</time>
      </trkpt>
      <trkpt lat="45.15846" lon="4.57429">
        <ele>639.41</ele>
        <time>2017-01-29T15:10:25Z</time>
      </trkpt>
      <trkpt lat="45.15835" lon="4.57436">
        <ele>637.97</ele>
        <time>2017-01-29T15:10:35Z</time>
      </trkpt>
      <trkpt lat="45.1582" lon="4.57463">
        <ele>636.05</ele>
        <time>2017-01-29T15:10:53Z</time>
      </trkpt>
      <trkpt lat="45.15811" lon="4.57489">
        <ele>634.61</ele>
        <time>2017-01-29T15:11:09Z</time>
      </trkpt>
      <trkpt lat="45.15803" lon="4.57516">
        <ele>632.68</ele>
        <time>2017-01-29T15:11:25Z</time>
      </trkpt>
      <trkpt lat="45.15797" lon="4.57543">
        <ele>631.24</ele>
        <time>2017-01-29T15:11:39Z</time>
      </trkpt>
      <trkpt lat="45.15793" lon="4.57564">
        <ele>629.8</ele>
        <time>2017-01-29T15:11:52Z</time>
      </trkpt>
      <trkpt lat="45.15789" lon="4.5759">
        <ele>628.36</ele>
        <time>2017-01-29T15:12:07Z</time>
      </trkpt>
      <trkpt lat="45.15782" lon="4.57617">
        <ele>626.44</ele>
        <time>2017-01-29T15:12:23Z</time>
      </trkpt>
      <trkpt lat="45.1578" lon="4.57639">
        <ele>624.03</ele>
        <time>2017-01-29T15:12:35Z</time>
      </trkpt>
      <trkpt lat="45.15781" lon="4.57667">
        <ele>623.07</ele>
        <time>2017-01-29T15:12:51Z</time>
      </trkpt>
      <trkpt lat="45.15775" lon="4.57703">
        <ele>620.67</ele>
        <time>2017-01-29T15:13:08Z</time>
      </trkpt>
      <trkpt lat="45.15771" lon="4.57723">
        <ele>619.71</ele>
        <time>2017-01-29T15:13:18Z</time>
      </trkpt>
      <trkpt lat="45.15765" lon="4.57746">
        <ele>618.26</ele>
        <time>2017-01-29T15:13:32Z</time>
      </trkpt>
      <trkpt lat="45.1576" lon="4.57771">
        <ele>616.82</ele>
        <time>2017-01-29T15:13:47Z</time>
      </trkpt>
      <trkpt lat="45.15754" lon="4.57803">
        <ele>614.9</ele>
        <time>2017-01-29T15:14:04Z</time>
      </trkpt>
      <trkpt lat="45.15745" lon="4.57833">
        <ele>612.02</ele>
        <time>2017-01-29T15:14:22Z</time>
      </trkpt>
      <trkpt lat="45.15738" lon="4.57856">
        <ele>608.65</ele>
        <time>2017-01-29T15:14:36Z</time>
      </trkpt>
      <trkpt lat="45.15735" lon="4.5787">
        <ele>608.65</ele>
        <time>2017-01-29T15:14:50Z</time>
      </trkpt>
      <trkpt lat="45.15735" lon="4.57872">
        <ele>607.21</ele>
        <time>2017-01-29T15:15:03Z</time>
      </trkpt>
      <trkpt lat="45.15735" lon="4.57872">
        <ele>608.65</ele>
        <time>2017-01-29T15:15:09Z</time>
      </trkpt>
    </trkseg>
  </trk>
</gpx>